<?xml version="1.0" encoding="UTF-8" standalone="no" ?>
<gpx xmlns="http://www.topografix.com/GPX/1/1" xmlns:xsi="http://www.w3.org/2001/XMLSchema-instance" xsi:schemaLocation="http://www.topografix.com/GPX/1/1 http://www.topografix.com/GPX/1/1/gpx.xsd" version="1.1" creator="VisuGPX - https://www.visugpx.com">
  <metadata>
    <name>Pic de l'ESCALETTE et Pic de CAGIRE</name>
    <desc><![CDATA[Très belle petite boucle avec une belle partie en crête. A faire par temps sec et sans neige. ]]></desc>
  </metadata>
  <trk>
    <name><![CDATA[Pic de l'ESCALETTE et Pic de CAGIRE]]></name>
    <trkseg>
      <trkpt lat="42.91909" lon="0.76189">
        <ele>1350.79</ele>
        <time>2019-08-18T06:48:19Z</time>
      </trkpt>
      <trkpt lat="42.91918" lon="0.76182">
        <ele>1349.83</ele>
        <time>2019-08-18T06:48:40Z</time>
      </trkpt>
      <trkpt lat="42.91934" lon="0.76178">
        <ele>1350.31</ele>
        <time>2019-08-18T06:48:55Z</time>
      </trkpt>
      <trkpt lat="42.91948" lon="0.76165">
        <ele>1349.83</ele>
        <time>2019-08-18T06:49:09Z</time>
      </trkpt>
      <trkpt lat="42.91949" lon="0.76153">
        <ele>1350.31</ele>
        <time>2019-08-18T06:49:19Z</time>
      </trkpt>
      <trkpt lat="42.91947" lon="0.76136">
        <ele>1351.27</ele>
        <time>2019-08-18T06:49:31Z</time>
      </trkpt>
      <trkpt lat="42.91948" lon="0.76122">
        <ele>1351.75</ele>
        <time>2019-08-18T06:49:42Z</time>
      </trkpt>
      <trkpt lat="42.9195" lon="0.76107">
        <ele>1352.23</ele>
        <time>2019-08-18T06:49:53Z</time>
      </trkpt>
      <trkpt lat="42.91955" lon="0.76092">
        <ele>1354.15</ele>
        <time>2019-08-18T06:50:06Z</time>
      </trkpt>
      <trkpt lat="42.9196" lon="0.76078">
        <ele>1354.63</ele>
        <time>2019-08-18T06:50:22Z</time>
      </trkpt>
      <trkpt lat="42.91978" lon="0.76068">
        <ele>1358.96</ele>
        <time>2019-08-18T06:50:45Z</time>
      </trkpt>
      <trkpt lat="42.91986" lon="0.76074">
        <ele>1362.33</ele>
        <time>2019-08-18T06:51:04Z</time>
      </trkpt>
      <trkpt lat="42.92" lon="0.76085">
        <ele>1363.77</ele>
        <time>2019-08-18T06:51:22Z</time>
      </trkpt>
      <trkpt lat="42.92015" lon="0.76071">
        <ele>1366.17</ele>
        <time>2019-08-18T06:51:43Z</time>
      </trkpt>
      <trkpt lat="42.92028" lon="0.7605">
        <ele>1370.98</ele>
        <time>2019-08-18T06:52:12Z</time>
      </trkpt>
      <trkpt lat="42.92041" lon="0.7604">
        <ele>1375.78</ele>
        <time>2019-08-18T06:52:47Z</time>
      </trkpt>
      <trkpt lat="42.92052" lon="0.76034">
        <ele>1379.63</ele>
        <time>2019-08-18T06:53:12Z</time>
      </trkpt>
      <trkpt lat="42.92067" lon="0.76024">
        <ele>1382.51</ele>
        <time>2019-08-18T06:53:35Z</time>
      </trkpt>
      <trkpt lat="42.92063" lon="0.75999">
        <ele>1386.36</ele>
        <time>2019-08-18T06:54:01Z</time>
      </trkpt>
      <trkpt lat="42.92068" lon="0.75981">
        <ele>1390.2</ele>
        <time>2019-08-18T06:54:27Z</time>
      </trkpt>
      <trkpt lat="42.92071" lon="0.75967">
        <ele>1392.61</ele>
        <time>2019-08-18T06:54:47Z</time>
      </trkpt>
      <trkpt lat="42.92078" lon="0.75956">
        <ele>1396.93</ele>
        <time>2019-08-18T06:55:15Z</time>
      </trkpt>
      <trkpt lat="42.92089" lon="0.75943">
        <ele>1401.26</ele>
        <time>2019-08-18T06:55:46Z</time>
      </trkpt>
      <trkpt lat="42.92097" lon="0.75932">
        <ele>1405.58</ele>
        <time>2019-08-18T06:56:11Z</time>
      </trkpt>
      <trkpt lat="42.92107" lon="0.75925">
        <ele>1409.43</ele>
        <time>2019-08-18T06:56:37Z</time>
      </trkpt>
      <trkpt lat="42.92114" lon="0.75906">
        <ele>1411.83</ele>
        <time>2019-08-18T06:56:58Z</time>
      </trkpt>
      <trkpt lat="42.9212" lon="0.75888">
        <ele>1414.72</ele>
        <time>2019-08-18T06:57:23Z</time>
      </trkpt>
      <trkpt lat="42.92131" lon="0.75875">
        <ele>1418.08</ele>
        <time>2019-08-18T06:57:51Z</time>
      </trkpt>
      <trkpt lat="42.92135" lon="0.75855">
        <ele>1422.41</ele>
        <time>2019-08-18T06:58:19Z</time>
      </trkpt>
      <trkpt lat="42.92137" lon="0.75835">
        <ele>1425.29</ele>
        <time>2019-08-18T06:58:45Z</time>
      </trkpt>
      <trkpt lat="42.92137" lon="0.75812">
        <ele>1429.62</ele>
        <time>2019-08-18T06:59:15Z</time>
      </trkpt>
      <trkpt lat="42.92132" lon="0.75793">
        <ele>1434.42</ele>
        <time>2019-08-18T06:59:50Z</time>
      </trkpt>
      <trkpt lat="42.92134" lon="0.7577">
        <ele>1437.79</ele>
        <time>2019-08-18T07:00:17Z</time>
      </trkpt>
      <trkpt lat="42.9214" lon="0.75758">
        <ele>1440.67</ele>
        <time>2019-08-18T07:00:37Z</time>
      </trkpt>
      <trkpt lat="42.92145" lon="0.75741">
        <ele>1445</ele>
        <time>2019-08-18T07:01:02Z</time>
      </trkpt>
      <trkpt lat="42.92146" lon="0.75723">
        <ele>1446.44</ele>
        <time>2019-08-18T07:01:24Z</time>
      </trkpt>
      <trkpt lat="42.92141" lon="0.75706">
        <ele>1449.32</ele>
        <time>2019-08-18T07:01:45Z</time>
      </trkpt>
      <trkpt lat="42.92143" lon="0.75689">
        <ele>1451.73</ele>
        <time>2019-08-18T07:02:15Z</time>
      </trkpt>
      <trkpt lat="42.92147" lon="0.75672">
        <ele>1457.02</ele>
        <time>2019-08-18T07:02:47Z</time>
      </trkpt>
      <trkpt lat="42.92149" lon="0.75647">
        <ele>1459.9</ele>
        <time>2019-08-18T07:03:20Z</time>
      </trkpt>
      <trkpt lat="42.92153" lon="0.75626">
        <ele>1464.23</ele>
        <time>2019-08-18T07:03:46Z</time>
      </trkpt>
      <trkpt lat="42.92159" lon="0.7561">
        <ele>1467.11</ele>
        <time>2019-08-18T07:04:07Z</time>
      </trkpt>
      <trkpt lat="42.9217" lon="0.75628">
        <ele>1471.44</ele>
        <time>2019-08-18T07:04:33Z</time>
      </trkpt>
      <trkpt lat="42.92177" lon="0.75644">
        <ele>1474.32</ele>
        <time>2019-08-18T07:04:58Z</time>
      </trkpt>
      <trkpt lat="42.92188" lon="0.75659">
        <ele>1478.65</ele>
        <time>2019-08-18T07:05:23Z</time>
      </trkpt>
      <trkpt lat="42.92202" lon="0.75663">
        <ele>1481.53</ele>
        <time>2019-08-18T07:05:53Z</time>
      </trkpt>
      <trkpt lat="42.92217" lon="0.75666">
        <ele>1487.78</ele>
        <time>2019-08-18T07:06:30Z</time>
      </trkpt>
      <trkpt lat="42.92234" lon="0.75679">
        <ele>1493.55</ele>
        <time>2019-08-18T07:07:09Z</time>
      </trkpt>
      <trkpt lat="42.92247" lon="0.75684">
        <ele>1498.83</ele>
        <time>2019-08-18T07:07:41Z</time>
      </trkpt>
      <trkpt lat="42.92258" lon="0.75691">
        <ele>1503.16</ele>
        <time>2019-08-18T07:08:09Z</time>
      </trkpt>
      <trkpt lat="42.92269" lon="0.75694">
        <ele>1507.48</ele>
        <time>2019-08-18T07:08:36Z</time>
      </trkpt>
      <trkpt lat="42.92283" lon="0.75689">
        <ele>1510.85</ele>
        <time>2019-08-18T07:09:03Z</time>
      </trkpt>
      <trkpt lat="42.92286" lon="0.75661">
        <ele>1515.18</ele>
        <time>2019-08-18T07:09:35Z</time>
      </trkpt>
      <trkpt lat="42.92289" lon="0.7564">
        <ele>1518.54</ele>
        <time>2019-08-18T07:09:56Z</time>
      </trkpt>
      <trkpt lat="42.92295" lon="0.75626">
        <ele>1520.46</ele>
        <time>2019-08-18T07:10:12Z</time>
      </trkpt>
      <trkpt lat="42.92294" lon="0.75613">
        <ele>1522.39</ele>
        <time>2019-08-18T07:10:25Z</time>
      </trkpt>
      <trkpt lat="42.92292" lon="0.75599">
        <ele>1524.31</ele>
        <time>2019-08-18T07:10:42Z</time>
      </trkpt>
      <trkpt lat="42.92284" lon="0.75581">
        <ele>1526.23</ele>
        <time>2019-08-18T07:11:03Z</time>
      </trkpt>
      <trkpt lat="42.92276" lon="0.75554">
        <ele>1531.04</ele>
        <time>2019-08-18T07:11:30Z</time>
      </trkpt>
      <trkpt lat="42.92273" lon="0.75532">
        <ele>1532.48</ele>
        <time>2019-08-18T07:11:52Z</time>
      </trkpt>
      <trkpt lat="42.92264" lon="0.75514">
        <ele>1533.92</ele>
        <time>2019-08-18T07:12:10Z</time>
      </trkpt>
      <trkpt lat="42.92259" lon="0.75483">
        <ele>1536.8</ele>
        <time>2019-08-18T07:12:38Z</time>
      </trkpt>
      <trkpt lat="42.9225" lon="0.75445">
        <ele>1538.73</ele>
        <time>2019-08-18T07:13:06Z</time>
      </trkpt>
      <trkpt lat="42.92247" lon="0.75415">
        <ele>1542.57</ele>
        <time>2019-08-18T07:13:36Z</time>
      </trkpt>
      <trkpt lat="42.92244" lon="0.75396">
        <ele>1543.53</ele>
        <time>2019-08-18T07:13:53Z</time>
      </trkpt>
      <trkpt lat="42.92241" lon="0.75381">
        <ele>1545.46</ele>
        <time>2019-08-18T07:14:09Z</time>
      </trkpt>
      <trkpt lat="42.92241" lon="0.75369">
        <ele>1547.86</ele>
        <time>2019-08-18T07:16:40Z</time>
      </trkpt>
      <trkpt lat="42.92239" lon="0.75354">
        <ele>1549.78</ele>
        <time>2019-08-18T07:16:53Z</time>
      </trkpt>
      <trkpt lat="42.92239" lon="0.7534">
        <ele>1550.26</ele>
        <time>2019-08-18T07:17:08Z</time>
      </trkpt>
      <trkpt lat="42.92238" lon="0.75327">
        <ele>1551.71</ele>
        <time>2019-08-18T07:17:22Z</time>
      </trkpt>
      <trkpt lat="42.92237" lon="0.75312">
        <ele>1554.11</ele>
        <time>2019-08-18T07:17:35Z</time>
      </trkpt>
      <trkpt lat="42.92234" lon="0.75296">
        <ele>1554.59</ele>
        <time>2019-08-18T07:17:47Z</time>
      </trkpt>
      <trkpt lat="42.92235" lon="0.75282">
        <ele>1556.03</ele>
        <time>2019-08-18T07:18:00Z</time>
      </trkpt>
      <trkpt lat="42.92239" lon="0.75269">
        <ele>1556.99</ele>
        <time>2019-08-18T07:18:13Z</time>
      </trkpt>
      <trkpt lat="42.92242" lon="0.75258">
        <ele>1559.88</ele>
        <time>2019-08-18T07:18:28Z</time>
      </trkpt>
      <trkpt lat="42.92242" lon="0.75246">
        <ele>1561.8</ele>
        <time>2019-08-18T07:18:44Z</time>
      </trkpt>
      <trkpt lat="42.92241" lon="0.75234">
        <ele>1564.2</ele>
        <time>2019-08-18T07:18:59Z</time>
      </trkpt>
      <trkpt lat="42.92239" lon="0.7522">
        <ele>1567.09</ele>
        <time>2019-08-18T07:19:14Z</time>
      </trkpt>
      <trkpt lat="42.92234" lon="0.75206">
        <ele>1568.53</ele>
        <time>2019-08-18T07:19:28Z</time>
      </trkpt>
      <trkpt lat="42.92232" lon="0.75196">
        <ele>1569.01</ele>
        <time>2019-08-18T07:19:51Z</time>
      </trkpt>
      <trkpt lat="42.92233" lon="0.75182">
        <ele>1569.49</ele>
        <time>2019-08-18T07:20:04Z</time>
      </trkpt>
      <trkpt lat="42.92234" lon="0.75168">
        <ele>1571.41</ele>
        <time>2019-08-18T07:20:17Z</time>
      </trkpt>
      <trkpt lat="42.92234" lon="0.75157">
        <ele>1571.41</ele>
        <time>2019-08-18T07:20:29Z</time>
      </trkpt>
      <trkpt lat="42.92235" lon="0.75143">
        <ele>1572.37</ele>
        <time>2019-08-18T07:20:42Z</time>
      </trkpt>
      <trkpt lat="42.92236" lon="0.7513">
        <ele>1573.33</ele>
        <time>2019-08-18T07:20:55Z</time>
      </trkpt>
      <trkpt lat="42.92238" lon="0.75118">
        <ele>1573.82</ele>
        <time>2019-08-18T07:21:10Z</time>
      </trkpt>
      <trkpt lat="42.92241" lon="0.75105">
        <ele>1575.26</ele>
        <time>2019-08-18T07:21:22Z</time>
      </trkpt>
      <trkpt lat="42.92242" lon="0.75102">
        <ele>1575.74</ele>
        <time>2019-08-18T07:22:22Z</time>
      </trkpt>
      <trkpt lat="42.92242" lon="0.75097">
        <ele>1576.22</ele>
        <time>2019-08-18T07:23:36Z</time>
      </trkpt>
      <trkpt lat="42.92251" lon="0.75091">
        <ele>1578.14</ele>
        <time>2019-08-18T07:23:48Z</time>
      </trkpt>
      <trkpt lat="42.92257" lon="0.75083">
        <ele>1578.14</ele>
        <time>2019-08-18T07:24:01Z</time>
      </trkpt>
      <trkpt lat="42.92264" lon="0.75076">
        <ele>1578.14</ele>
        <time>2019-08-18T07:24:18Z</time>
      </trkpt>
      <trkpt lat="42.92272" lon="0.7507">
        <ele>1579.1</ele>
        <time>2019-08-18T07:24:28Z</time>
      </trkpt>
      <trkpt lat="42.9228" lon="0.75064">
        <ele>1580.06</ele>
        <time>2019-08-18T07:24:38Z</time>
      </trkpt>
      <trkpt lat="42.92288" lon="0.75058">
        <ele>1580.54</ele>
        <time>2019-08-18T07:24:48Z</time>
      </trkpt>
      <trkpt lat="42.92296" lon="0.75053">
        <ele>1581.03</ele>
        <time>2019-08-18T07:25:00Z</time>
      </trkpt>
      <trkpt lat="42.92305" lon="0.75047">
        <ele>1582.47</ele>
        <time>2019-08-18T07:25:13Z</time>
      </trkpt>
      <trkpt lat="42.92313" lon="0.75042">
        <ele>1584.87</ele>
        <time>2019-08-18T07:25:26Z</time>
      </trkpt>
      <trkpt lat="42.92321" lon="0.75033">
        <ele>1586.79</ele>
        <time>2019-08-18T07:25:43Z</time>
      </trkpt>
      <trkpt lat="42.9233" lon="0.75028">
        <ele>1588.72</ele>
        <time>2019-08-18T07:25:57Z</time>
      </trkpt>
      <trkpt lat="42.92338" lon="0.75021">
        <ele>1589.68</ele>
        <time>2019-08-18T07:26:10Z</time>
      </trkpt>
      <trkpt lat="42.92346" lon="0.75012">
        <ele>1591.12</ele>
        <time>2019-08-18T07:26:22Z</time>
      </trkpt>
      <trkpt lat="42.92355" lon="0.75007">
        <ele>1593.04</ele>
        <time>2019-08-18T07:26:35Z</time>
      </trkpt>
      <trkpt lat="42.92364" lon="0.75001">
        <ele>1594.96</ele>
        <time>2019-08-18T07:26:50Z</time>
      </trkpt>
      <trkpt lat="42.92373" lon="0.74993">
        <ele>1596.89</ele>
        <time>2019-08-18T07:27:04Z</time>
      </trkpt>
      <trkpt lat="42.92383" lon="0.74993">
        <ele>1599.77</ele>
        <time>2019-08-18T07:27:21Z</time>
      </trkpt>
      <trkpt lat="42.92392" lon="0.74994">
        <ele>1603.14</ele>
        <time>2019-08-18T07:27:38Z</time>
      </trkpt>
      <trkpt lat="42.92402" lon="0.74992">
        <ele>1605.54</ele>
        <time>2019-08-18T07:27:55Z</time>
      </trkpt>
      <trkpt lat="42.92412" lon="0.74987">
        <ele>1608.9</ele>
        <time>2019-08-18T07:28:13Z</time>
      </trkpt>
      <trkpt lat="42.92421" lon="0.74986">
        <ele>1610.35</ele>
        <time>2019-08-18T07:28:31Z</time>
      </trkpt>
      <trkpt lat="42.9243" lon="0.74986">
        <ele>1613.23</ele>
        <time>2019-08-18T07:28:46Z</time>
      </trkpt>
      <trkpt lat="42.92439" lon="0.74986">
        <ele>1616.59</ele>
        <time>2019-08-18T07:29:05Z</time>
      </trkpt>
      <trkpt lat="42.92449" lon="0.74988">
        <ele>1620.44</ele>
        <time>2019-08-18T07:29:29Z</time>
      </trkpt>
      <trkpt lat="42.9246" lon="0.74986">
        <ele>1623.32</ele>
        <time>2019-08-18T07:29:51Z</time>
      </trkpt>
      <trkpt lat="42.92469" lon="0.74987">
        <ele>1626.21</ele>
        <time>2019-08-18T07:30:09Z</time>
      </trkpt>
      <trkpt lat="42.92477" lon="0.74988">
        <ele>1629.09</ele>
        <time>2019-08-18T07:30:27Z</time>
      </trkpt>
      <trkpt lat="42.92486" lon="0.7499">
        <ele>1631.98</ele>
        <time>2019-08-18T07:31:04Z</time>
      </trkpt>
      <trkpt lat="42.92495" lon="0.74989">
        <ele>1635.82</ele>
        <time>2019-08-18T07:31:23Z</time>
      </trkpt>
      <trkpt lat="42.92504" lon="0.74991">
        <ele>1637.74</ele>
        <time>2019-08-18T07:31:40Z</time>
      </trkpt>
      <trkpt lat="42.92514" lon="0.74992">
        <ele>1641.59</ele>
        <time>2019-08-18T07:31:58Z</time>
      </trkpt>
      <trkpt lat="42.92524" lon="0.74994">
        <ele>1644.95</ele>
        <time>2019-08-18T07:32:20Z</time>
      </trkpt>
      <trkpt lat="42.92531" lon="0.74999">
        <ele>1648.8</ele>
        <time>2019-08-18T07:32:40Z</time>
      </trkpt>
      <trkpt lat="42.92539" lon="0.75001">
        <ele>1652.16</ele>
        <time>2019-08-18T07:33:05Z</time>
      </trkpt>
      <trkpt lat="42.9255" lon="0.75006">
        <ele>1656.97</ele>
        <time>2019-08-18T07:33:46Z</time>
      </trkpt>
      <trkpt lat="42.92559" lon="0.7501">
        <ele>1660.33</ele>
        <time>2019-08-18T07:34:07Z</time>
      </trkpt>
      <trkpt lat="42.92566" lon="0.75012">
        <ele>1664.66</ele>
        <time>2019-08-18T07:34:36Z</time>
      </trkpt>
      <trkpt lat="42.92574" lon="0.75017">
        <ele>1668.02</ele>
        <time>2019-08-18T07:34:59Z</time>
      </trkpt>
      <trkpt lat="42.92581" lon="0.75022">
        <ele>1673.79</ele>
        <time>2019-08-18T07:35:32Z</time>
      </trkpt>
      <trkpt lat="42.92588" lon="0.75024">
        <ele>1676.2</ele>
        <time>2019-08-18T07:35:48Z</time>
      </trkpt>
      <trkpt lat="42.92599" lon="0.75027">
        <ele>1678.12</ele>
        <time>2019-08-18T07:36:04Z</time>
      </trkpt>
      <trkpt lat="42.92606" lon="0.75024">
        <ele>1680.52</ele>
        <time>2019-08-18T07:36:19Z</time>
      </trkpt>
      <trkpt lat="42.92611" lon="0.75031">
        <ele>1684.37</ele>
        <time>2019-08-18T07:36:37Z</time>
      </trkpt>
      <trkpt lat="42.92621" lon="0.7503">
        <ele>1686.29</ele>
        <time>2019-08-18T07:36:56Z</time>
      </trkpt>
      <trkpt lat="42.92629" lon="0.75033">
        <ele>1689.17</ele>
        <time>2019-08-18T07:37:18Z</time>
      </trkpt>
      <trkpt lat="42.92639" lon="0.75037">
        <ele>1693.98</ele>
        <time>2019-08-18T07:37:46Z</time>
      </trkpt>
      <trkpt lat="42.92648" lon="0.75039">
        <ele>1697.34</ele>
        <time>2019-08-18T07:38:10Z</time>
      </trkpt>
      <trkpt lat="42.92657" lon="0.75037">
        <ele>1700.23</ele>
        <time>2019-08-18T07:38:33Z</time>
      </trkpt>
      <trkpt lat="42.92665" lon="0.75039">
        <ele>1704.55</ele>
        <time>2019-08-18T07:38:52Z</time>
      </trkpt>
      <trkpt lat="42.92673" lon="0.7504">
        <ele>1706.48</ele>
        <time>2019-08-18T07:39:12Z</time>
      </trkpt>
      <trkpt lat="42.92682" lon="0.75041">
        <ele>1711.76</ele>
        <time>2019-08-18T07:39:37Z</time>
      </trkpt>
      <trkpt lat="42.92693" lon="0.75044">
        <ele>1716.57</ele>
        <time>2019-08-18T07:40:08Z</time>
      </trkpt>
      <trkpt lat="42.927" lon="0.75045">
        <ele>1719.46</ele>
        <time>2019-08-18T07:40:31Z</time>
      </trkpt>
      <trkpt lat="42.92706" lon="0.75048">
        <ele>1723.78</ele>
        <time>2019-08-18T07:40:54Z</time>
      </trkpt>
      <trkpt lat="42.92714" lon="0.75044">
        <ele>1728.11</ele>
        <time>2019-08-18T07:41:23Z</time>
      </trkpt>
      <trkpt lat="42.92724" lon="0.75049">
        <ele>1733.39</ele>
        <time>2019-08-18T07:41:57Z</time>
      </trkpt>
      <trkpt lat="42.92732" lon="0.75045">
        <ele>1735.32</ele>
        <time>2019-08-18T07:42:18Z</time>
      </trkpt>
      <trkpt lat="42.92744" lon="0.75043">
        <ele>1739.16</ele>
        <time>2019-08-18T07:42:46Z</time>
      </trkpt>
      <trkpt lat="42.92753" lon="0.7504">
        <ele>1742.53</ele>
        <time>2019-08-18T07:43:02Z</time>
      </trkpt>
      <trkpt lat="42.92761" lon="0.75039">
        <ele>1743.49</ele>
        <time>2019-08-18T07:43:17Z</time>
      </trkpt>
      <trkpt lat="42.92771" lon="0.75038">
        <ele>1746.85</ele>
        <time>2019-08-18T07:43:33Z</time>
      </trkpt>
      <trkpt lat="42.92779" lon="0.75035">
        <ele>1749.26</ele>
        <time>2019-08-18T07:43:50Z</time>
      </trkpt>
      <trkpt lat="42.92786" lon="0.75034">
        <ele>1753.58</ele>
        <time>2019-08-18T07:44:09Z</time>
      </trkpt>
      <trkpt lat="42.92796" lon="0.75028">
        <ele>1755.5</ele>
        <time>2019-08-18T07:44:25Z</time>
      </trkpt>
      <trkpt lat="42.92806" lon="0.75027">
        <ele>1758.87</ele>
        <time>2019-08-18T07:44:45Z</time>
      </trkpt>
      <trkpt lat="42.92816" lon="0.75026">
        <ele>1760.79</ele>
        <time>2019-08-18T07:45:02Z</time>
      </trkpt>
      <trkpt lat="42.92822" lon="0.75024">
        <ele>1764.16</ele>
        <time>2019-08-18T07:46:47Z</time>
      </trkpt>
      <trkpt lat="42.92832" lon="0.75025">
        <ele>1767.04</ele>
        <time>2019-08-18T07:47:06Z</time>
      </trkpt>
      <trkpt lat="42.92838" lon="0.75032">
        <ele>1771.37</ele>
        <time>2019-08-18T07:47:31Z</time>
      </trkpt>
      <trkpt lat="42.92842" lon="0.75042">
        <ele>1775.21</ele>
        <time>2019-08-18T07:47:56Z</time>
      </trkpt>
      <trkpt lat="42.92846" lon="0.75055">
        <ele>1780.02</ele>
        <time>2019-08-18T07:48:27Z</time>
      </trkpt>
      <trkpt lat="42.92852" lon="0.75065">
        <ele>1783.86</ele>
        <time>2019-08-18T07:48:57Z</time>
      </trkpt>
      <trkpt lat="42.92859" lon="0.75075">
        <ele>1787.71</ele>
        <time>2019-08-18T07:49:28Z</time>
      </trkpt>
      <trkpt lat="42.92865" lon="0.75086">
        <ele>1791.07</ele>
        <time>2019-08-18T07:49:51Z</time>
      </trkpt>
      <trkpt lat="42.92873" lon="0.75095">
        <ele>1795.88</ele>
        <time>2019-08-18T07:50:11Z</time>
      </trkpt>
      <trkpt lat="42.92877" lon="0.75102">
        <ele>1797.8</ele>
        <time>2019-08-18T07:50:31Z</time>
      </trkpt>
      <trkpt lat="42.92871" lon="0.7511">
        <ele>1797.32</ele>
        <time>2019-08-18T07:51:08Z</time>
      </trkpt>
      <trkpt lat="42.92864" lon="0.75121">
        <ele>1800.21</ele>
        <time>2019-08-18T07:51:25Z</time>
      </trkpt>
      <trkpt lat="42.92857" lon="0.75132">
        <ele>1804.05</ele>
        <time>2019-08-18T07:51:44Z</time>
      </trkpt>
      <trkpt lat="42.92849" lon="0.75136">
        <ele>1807.9</ele>
        <time>2019-08-18T07:52:12Z</time>
      </trkpt>
      <trkpt lat="42.9284" lon="0.75138">
        <ele>1810.78</ele>
        <time>2019-08-18T07:52:34Z</time>
      </trkpt>
      <trkpt lat="42.92831" lon="0.75149">
        <ele>1815.59</ele>
        <time>2019-08-18T07:53:12Z</time>
      </trkpt>
      <trkpt lat="42.92819" lon="0.75158">
        <ele>1820.87</ele>
        <time>2019-08-18T07:53:54Z</time>
      </trkpt>
      <trkpt lat="42.92821" lon="0.75176">
        <ele>1829.05</ele>
        <time>2019-08-18T07:54:49Z</time>
      </trkpt>
      <trkpt lat="42.92817" lon="0.75186">
        <ele>1834.81</ele>
        <time>2019-08-18T07:55:48Z</time>
      </trkpt>
      <trkpt lat="42.92816" lon="0.75186">
        <ele>1836.26</ele>
        <time>2019-08-18T07:56:59Z</time>
      </trkpt>
      <trkpt lat="42.92809" lon="0.75188">
        <ele>1835.29</ele>
        <time>2019-08-18T07:57:12Z</time>
      </trkpt>
      <trkpt lat="42.92801" lon="0.75186">
        <ele>1837.22</ele>
        <time>2019-08-18T07:57:41Z</time>
      </trkpt>
      <trkpt lat="42.9279" lon="0.75184">
        <ele>1839.14</ele>
        <time>2019-08-18T07:58:07Z</time>
      </trkpt>
      <trkpt lat="42.92796" lon="0.75183">
        <ele>1839.62</ele>
        <time>2019-08-18T08:00:49Z</time>
      </trkpt>
      <trkpt lat="42.92804" lon="0.75186">
        <ele>1837.7</ele>
        <time>2019-08-18T08:01:13Z</time>
      </trkpt>
      <trkpt lat="42.92812" lon="0.75189">
        <ele>1836.26</ele>
        <time>2019-08-18T08:01:35Z</time>
      </trkpt>
      <trkpt lat="42.92817" lon="0.75173">
        <ele>1832.41</ele>
        <time>2019-08-18T08:02:20Z</time>
      </trkpt>
      <trkpt lat="42.9282" lon="0.75164">
        <ele>1827.6</ele>
        <time>2019-08-18T08:02:49Z</time>
      </trkpt>
      <trkpt lat="42.92824" lon="0.75154">
        <ele>1823.28</ele>
        <time>2019-08-18T08:03:21Z</time>
      </trkpt>
      <trkpt lat="42.92828" lon="0.75147">
        <ele>1819.43</ele>
        <time>2019-08-18T08:03:46Z</time>
      </trkpt>
      <trkpt lat="42.92838" lon="0.75141">
        <ele>1815.11</ele>
        <time>2019-08-18T08:04:08Z</time>
      </trkpt>
      <trkpt lat="42.92847" lon="0.75137">
        <ele>1811.26</ele>
        <time>2019-08-18T08:04:30Z</time>
      </trkpt>
      <trkpt lat="42.92853" lon="0.75128">
        <ele>1808.86</ele>
        <time>2019-08-18T08:04:48Z</time>
      </trkpt>
      <trkpt lat="42.92861" lon="0.75123">
        <ele>1805.97</ele>
        <time>2019-08-18T08:05:02Z</time>
      </trkpt>
      <trkpt lat="42.9287" lon="0.75111">
        <ele>1803.57</ele>
        <time>2019-08-18T08:05:18Z</time>
      </trkpt>
      <trkpt lat="42.92876" lon="0.75101">
        <ele>1800.69</ele>
        <time>2019-08-18T08:05:30Z</time>
      </trkpt>
      <trkpt lat="42.92885" lon="0.75096">
        <ele>1801.65</ele>
        <time>2019-08-18T08:05:40Z</time>
      </trkpt>
      <trkpt lat="42.92893" lon="0.75087">
        <ele>1803.57</ele>
        <time>2019-08-18T08:05:50Z</time>
      </trkpt>
      <trkpt lat="42.92898" lon="0.75078">
        <ele>1805.97</ele>
        <time>2019-08-18T08:06:03Z</time>
      </trkpt>
      <trkpt lat="42.92905" lon="0.75071">
        <ele>1810.3</ele>
        <time>2019-08-18T08:06:17Z</time>
      </trkpt>
      <trkpt lat="42.92911" lon="0.75061">
        <ele>1812.22</ele>
        <time>2019-08-18T08:06:31Z</time>
      </trkpt>
      <trkpt lat="42.92916" lon="0.7505">
        <ele>1812.7</ele>
        <time>2019-08-18T08:07:06Z</time>
      </trkpt>
      <trkpt lat="42.92924" lon="0.75042">
        <ele>1813.66</ele>
        <time>2019-08-18T08:07:19Z</time>
      </trkpt>
      <trkpt lat="42.92929" lon="0.75032">
        <ele>1815.59</ele>
        <time>2019-08-18T08:07:30Z</time>
      </trkpt>
      <trkpt lat="42.92931" lon="0.7502">
        <ele>1816.07</ele>
        <time>2019-08-18T08:07:41Z</time>
      </trkpt>
      <trkpt lat="42.92935" lon="0.7501">
        <ele>1819.43</ele>
        <time>2019-08-18T08:07:57Z</time>
      </trkpt>
      <trkpt lat="42.92941" lon="0.75003">
        <ele>1821.35</ele>
        <time>2019-08-18T08:08:14Z</time>
      </trkpt>
      <trkpt lat="42.92945" lon="0.74992">
        <ele>1824.24</ele>
        <time>2019-08-18T08:08:31Z</time>
      </trkpt>
      <trkpt lat="42.9295" lon="0.74983">
        <ele>1821.84</ele>
        <time>2019-08-18T08:08:56Z</time>
      </trkpt>
      <trkpt lat="42.92957" lon="0.74976">
        <ele>1817.51</ele>
        <time>2019-08-18T08:09:27Z</time>
      </trkpt>
      <trkpt lat="42.92963" lon="0.74967">
        <ele>1815.11</ele>
        <time>2019-08-18T08:09:46Z</time>
      </trkpt>
      <trkpt lat="42.92964" lon="0.74954">
        <ele>1810.78</ele>
        <time>2019-08-18T08:10:03Z</time>
      </trkpt>
      <trkpt lat="42.92973" lon="0.74945">
        <ele>1809.82</ele>
        <time>2019-08-18T08:10:16Z</time>
      </trkpt>
      <trkpt lat="42.92983" lon="0.74941">
        <ele>1806.94</ele>
        <time>2019-08-18T08:10:25Z</time>
      </trkpt>
      <trkpt lat="42.92991" lon="0.74932">
        <ele>1806.45</ele>
        <time>2019-08-18T08:10:33Z</time>
      </trkpt>
      <trkpt lat="42.93001" lon="0.74925">
        <ele>1806.45</ele>
        <time>2019-08-18T08:10:43Z</time>
      </trkpt>
      <trkpt lat="42.9301" lon="0.74921">
        <ele>1807.42</ele>
        <time>2019-08-18T08:10:52Z</time>
      </trkpt>
      <trkpt lat="42.9302" lon="0.74919">
        <ele>1809.34</ele>
        <time>2019-08-18T08:11:03Z</time>
      </trkpt>
      <trkpt lat="42.93029" lon="0.74913">
        <ele>1809.82</ele>
        <time>2019-08-18T08:11:19Z</time>
      </trkpt>
      <trkpt lat="42.93039" lon="0.74908">
        <ele>1809.34</ele>
        <time>2019-08-18T08:11:37Z</time>
      </trkpt>
      <trkpt lat="42.93045" lon="0.74899">
        <ele>1812.7</ele>
        <time>2019-08-18T08:11:52Z</time>
      </trkpt>
      <trkpt lat="42.93053" lon="0.74891">
        <ele>1814.63</ele>
        <time>2019-08-18T08:12:08Z</time>
      </trkpt>
      <trkpt lat="42.93064" lon="0.74886">
        <ele>1815.59</ele>
        <time>2019-08-18T08:12:29Z</time>
      </trkpt>
      <trkpt lat="42.93077" lon="0.7488">
        <ele>1818.95</ele>
        <time>2019-08-18T08:12:48Z</time>
      </trkpt>
      <trkpt lat="42.93088" lon="0.74881">
        <ele>1820.39</ele>
        <time>2019-08-18T08:13:10Z</time>
      </trkpt>
      <trkpt lat="42.93099" lon="0.74878">
        <ele>1823.28</ele>
        <time>2019-08-18T08:13:30Z</time>
      </trkpt>
      <trkpt lat="42.93107" lon="0.74869">
        <ele>1827.12</ele>
        <time>2019-08-18T08:13:51Z</time>
      </trkpt>
      <trkpt lat="42.93115" lon="0.74874">
        <ele>1830.01</ele>
        <time>2019-08-18T08:14:13Z</time>
      </trkpt>
      <trkpt lat="42.93122" lon="0.74876">
        <ele>1831.93</ele>
        <time>2019-08-18T08:14:30Z</time>
      </trkpt>
      <trkpt lat="42.93131" lon="0.7488">
        <ele>1833.85</ele>
        <time>2019-08-18T08:14:45Z</time>
      </trkpt>
      <trkpt lat="42.93141" lon="0.74883">
        <ele>1834.33</ele>
        <time>2019-08-18T08:15:00Z</time>
      </trkpt>
      <trkpt lat="42.9315" lon="0.74887">
        <ele>1834.81</ele>
        <time>2019-08-18T08:15:13Z</time>
      </trkpt>
      <trkpt lat="42.93159" lon="0.74893">
        <ele>1833.37</ele>
        <time>2019-08-18T08:15:25Z</time>
      </trkpt>
      <trkpt lat="42.93166" lon="0.74904">
        <ele>1833.37</ele>
        <time>2019-08-18T08:15:36Z</time>
      </trkpt>
      <trkpt lat="42.93173" lon="0.74914">
        <ele>1833.37</ele>
        <time>2019-08-18T08:15:47Z</time>
      </trkpt>
      <trkpt lat="42.93181" lon="0.74921">
        <ele>1835.29</ele>
        <time>2019-08-18T08:16:00Z</time>
      </trkpt>
      <trkpt lat="42.93187" lon="0.74932">
        <ele>1836.74</ele>
        <time>2019-08-18T08:16:13Z</time>
      </trkpt>
      <trkpt lat="42.93196" lon="0.74935">
        <ele>1837.7</ele>
        <time>2019-08-18T08:16:26Z</time>
      </trkpt>
      <trkpt lat="42.93205" lon="0.74941">
        <ele>1836.74</ele>
        <time>2019-08-18T08:16:44Z</time>
      </trkpt>
      <trkpt lat="42.93213" lon="0.74952">
        <ele>1835.77</ele>
        <time>2019-08-18T08:16:58Z</time>
      </trkpt>
      <trkpt lat="42.93222" lon="0.74957">
        <ele>1834.81</ele>
        <time>2019-08-18T08:17:14Z</time>
      </trkpt>
      <trkpt lat="42.93228" lon="0.74968">
        <ele>1837.22</ele>
        <time>2019-08-18T08:17:28Z</time>
      </trkpt>
      <trkpt lat="42.93235" lon="0.74977">
        <ele>1838.66</ele>
        <time>2019-08-18T08:17:40Z</time>
      </trkpt>
      <trkpt lat="42.93241" lon="0.74987">
        <ele>1839.14</ele>
        <time>2019-08-18T08:17:53Z</time>
      </trkpt>
      <trkpt lat="42.93248" lon="0.74996">
        <ele>1838.18</ele>
        <time>2019-08-18T08:18:04Z</time>
      </trkpt>
      <trkpt lat="42.93253" lon="0.75009">
        <ele>1837.7</ele>
        <time>2019-08-18T08:18:16Z</time>
      </trkpt>
      <trkpt lat="42.93256" lon="0.75022">
        <ele>1838.66</ele>
        <time>2019-08-18T08:18:31Z</time>
      </trkpt>
      <trkpt lat="42.93263" lon="0.75031">
        <ele>1837.7</ele>
        <time>2019-08-18T08:18:43Z</time>
      </trkpt>
      <trkpt lat="42.93269" lon="0.75042">
        <ele>1838.66</ele>
        <time>2019-08-18T08:18:57Z</time>
      </trkpt>
      <trkpt lat="42.93273" lon="0.75055">
        <ele>1838.18</ele>
        <time>2019-08-18T08:19:20Z</time>
      </trkpt>
      <trkpt lat="42.93278" lon="0.75067">
        <ele>1836.26</ele>
        <time>2019-08-18T08:19:40Z</time>
      </trkpt>
      <trkpt lat="42.93283" lon="0.75085">
        <ele>1834.33</ele>
        <time>2019-08-18T08:20:04Z</time>
      </trkpt>
      <trkpt lat="42.9329" lon="0.75104">
        <ele>1836.26</ele>
        <time>2019-08-18T08:20:29Z</time>
      </trkpt>
      <trkpt lat="42.93298" lon="0.75117">
        <ele>1834.81</ele>
        <time>2019-08-18T08:20:51Z</time>
      </trkpt>
      <trkpt lat="42.93299" lon="0.75131">
        <ele>1830.01</ele>
        <time>2019-08-18T08:21:25Z</time>
      </trkpt>
      <trkpt lat="42.93303" lon="0.7514">
        <ele>1823.28</ele>
        <time>2019-08-18T08:22:12Z</time>
      </trkpt>
      <trkpt lat="42.93311" lon="0.7515">
        <ele>1819.91</ele>
        <time>2019-08-18T08:22:37Z</time>
      </trkpt>
      <trkpt lat="42.93319" lon="0.7516">
        <ele>1816.55</ele>
        <time>2019-08-18T08:22:59Z</time>
      </trkpt>
      <trkpt lat="42.93327" lon="0.75167">
        <ele>1814.63</ele>
        <time>2019-08-18T08:23:14Z</time>
      </trkpt>
      <trkpt lat="42.93338" lon="0.75171">
        <ele>1814.15</ele>
        <time>2019-08-18T08:23:44Z</time>
      </trkpt>
      <trkpt lat="42.93349" lon="0.75171">
        <ele>1806.94</ele>
        <time>2019-08-18T08:24:14Z</time>
      </trkpt>
      <trkpt lat="42.93359" lon="0.75177">
        <ele>1803.09</ele>
        <time>2019-08-18T08:25:04Z</time>
      </trkpt>
      <trkpt lat="42.93366" lon="0.75188">
        <ele>1796.84</ele>
        <time>2019-08-18T08:25:57Z</time>
      </trkpt>
      <trkpt lat="42.93376" lon="0.75196">
        <ele>1791.55</ele>
        <time>2019-08-18T08:26:27Z</time>
      </trkpt>
      <trkpt lat="42.93385" lon="0.75204">
        <ele>1789.15</ele>
        <time>2019-08-18T08:26:49Z</time>
      </trkpt>
      <trkpt lat="42.93393" lon="0.75213">
        <ele>1785.79</ele>
        <time>2019-08-18T08:27:07Z</time>
      </trkpt>
      <trkpt lat="42.93402" lon="0.7522">
        <ele>1782.9</ele>
        <time>2019-08-18T08:27:21Z</time>
      </trkpt>
      <trkpt lat="42.93413" lon="0.75229">
        <ele>1775.69</ele>
        <time>2019-08-18T08:27:59Z</time>
      </trkpt>
      <trkpt lat="42.93421" lon="0.75228">
        <ele>1767.04</ele>
        <time>2019-08-18T08:28:58Z</time>
      </trkpt>
      <trkpt lat="42.93429" lon="0.75231">
        <ele>1762.71</ele>
        <time>2019-08-18T08:29:26Z</time>
      </trkpt>
      <trkpt lat="42.93424" lon="0.75233">
        <ele>1763.68</ele>
        <time>2019-08-18T08:29:37Z</time>
      </trkpt>
      <trkpt lat="42.93422" lon="0.75234">
        <ele>1762.71</ele>
        <time>2019-08-18T08:29:48Z</time>
      </trkpt>
      <trkpt lat="42.93446" lon="0.75239">
        <ele>1759.35</ele>
        <time>2019-08-18T08:30:36Z</time>
      </trkpt>
      <trkpt lat="42.93465" lon="0.75244">
        <ele>1756.95</ele>
        <time>2019-08-18T08:31:27Z</time>
      </trkpt>
      <trkpt lat="42.93483" lon="0.75255">
        <ele>1752.62</ele>
        <time>2019-08-18T08:32:25Z</time>
      </trkpt>
      <trkpt lat="42.93491" lon="0.75277">
        <ele>1755.99</ele>
        <time>2019-08-18T08:32:59Z</time>
      </trkpt>
      <trkpt lat="42.93502" lon="0.75297">
        <ele>1762.23</ele>
        <time>2019-08-18T08:33:40Z</time>
      </trkpt>
      <trkpt lat="42.93512" lon="0.753">
        <ele>1764.64</ele>
        <time>2019-08-18T08:34:21Z</time>
      </trkpt>
      <trkpt lat="42.93525" lon="0.75308">
        <ele>1765.12</ele>
        <time>2019-08-18T08:34:45Z</time>
      </trkpt>
      <trkpt lat="42.93541" lon="0.75317">
        <ele>1762.23</ele>
        <time>2019-08-18T08:35:10Z</time>
      </trkpt>
      <trkpt lat="42.93551" lon="0.75332">
        <ele>1758.87</ele>
        <time>2019-08-18T08:35:34Z</time>
      </trkpt>
      <trkpt lat="42.93558" lon="0.75343">
        <ele>1756.47</ele>
        <time>2019-08-18T08:35:53Z</time>
      </trkpt>
      <trkpt lat="42.93567" lon="0.75354">
        <ele>1755.99</ele>
        <time>2019-08-18T08:36:11Z</time>
      </trkpt>
      <trkpt lat="42.93583" lon="0.75355">
        <ele>1752.62</ele>
        <time>2019-08-18T08:36:52Z</time>
      </trkpt>
      <trkpt lat="42.93593" lon="0.75369">
        <ele>1753.58</ele>
        <time>2019-08-18T08:37:31Z</time>
      </trkpt>
      <trkpt lat="42.93603" lon="0.75379">
        <ele>1748.78</ele>
        <time>2019-08-18T08:37:58Z</time>
      </trkpt>
      <trkpt lat="42.93614" lon="0.75387">
        <ele>1747.33</ele>
        <time>2019-08-18T08:38:20Z</time>
      </trkpt>
      <trkpt lat="42.93626" lon="0.75384">
        <ele>1743.97</ele>
        <time>2019-08-18T08:38:34Z</time>
      </trkpt>
      <trkpt lat="42.93637" lon="0.7539">
        <ele>1742.05</ele>
        <time>2019-08-18T08:38:56Z</time>
      </trkpt>
      <trkpt lat="42.93652" lon="0.75402">
        <ele>1736.28</ele>
        <time>2019-08-18T08:39:25Z</time>
      </trkpt>
      <trkpt lat="42.93662" lon="0.75412">
        <ele>1734.36</ele>
        <time>2019-08-18T08:39:42Z</time>
      </trkpt>
      <trkpt lat="42.93672" lon="0.7542">
        <ele>1732.43</ele>
        <time>2019-08-18T08:40:02Z</time>
      </trkpt>
      <trkpt lat="42.93686" lon="0.75425">
        <ele>1728.59</ele>
        <time>2019-08-18T08:40:22Z</time>
      </trkpt>
      <trkpt lat="42.93698" lon="0.75426">
        <ele>1726.67</ele>
        <time>2019-08-18T08:40:38Z</time>
      </trkpt>
      <trkpt lat="42.93701" lon="0.75438">
        <ele>1722.82</ele>
        <time>2019-08-18T08:40:59Z</time>
      </trkpt>
      <trkpt lat="42.9371" lon="0.75452">
        <ele>1721.86</ele>
        <time>2019-08-18T08:41:11Z</time>
      </trkpt>
      <trkpt lat="42.93722" lon="0.75459">
        <ele>1719.46</ele>
        <time>2019-08-18T08:41:34Z</time>
      </trkpt>
      <trkpt lat="42.93732" lon="0.75465">
        <ele>1717.05</ele>
        <time>2019-08-18T08:41:45Z</time>
      </trkpt>
      <trkpt lat="42.93743" lon="0.75459">
        <ele>1713.21</ele>
        <time>2019-08-18T08:41:59Z</time>
      </trkpt>
      <trkpt lat="42.93752" lon="0.75457">
        <ele>1710.32</ele>
        <time>2019-08-18T08:42:21Z</time>
      </trkpt>
      <trkpt lat="42.93762" lon="0.7546">
        <ele>1708.4</ele>
        <time>2019-08-18T08:42:37Z</time>
      </trkpt>
      <trkpt lat="42.93775" lon="0.75468">
        <ele>1708.88</ele>
        <time>2019-08-18T08:42:47Z</time>
      </trkpt>
      <trkpt lat="42.93784" lon="0.75477">
        <ele>1710.8</ele>
        <time>2019-08-18T08:43:57Z</time>
      </trkpt>
      <trkpt lat="42.93791" lon="0.75484">
        <ele>1711.76</ele>
        <time>2019-08-18T08:44:27Z</time>
      </trkpt>
      <trkpt lat="42.93801" lon="0.75486">
        <ele>1714.17</ele>
        <time>2019-08-18T08:44:42Z</time>
      </trkpt>
      <trkpt lat="42.93809" lon="0.75492">
        <ele>1716.57</ele>
        <time>2019-08-18T08:45:00Z</time>
      </trkpt>
      <trkpt lat="42.9382" lon="0.75494">
        <ele>1719.94</ele>
        <time>2019-08-18T08:45:25Z</time>
      </trkpt>
      <trkpt lat="42.93829" lon="0.75498">
        <ele>1723.78</ele>
        <time>2019-08-18T08:45:49Z</time>
      </trkpt>
      <trkpt lat="42.93836" lon="0.75493">
        <ele>1726.67</ele>
        <time>2019-08-18T08:46:14Z</time>
      </trkpt>
      <trkpt lat="42.93842" lon="0.75499">
        <ele>1729.07</ele>
        <time>2019-08-18T08:46:34Z</time>
      </trkpt>
      <trkpt lat="42.93848" lon="0.75496">
        <ele>1731.95</ele>
        <time>2019-08-18T08:46:59Z</time>
      </trkpt>
      <trkpt lat="42.93851" lon="0.75506">
        <ele>1736.76</ele>
        <time>2019-08-18T08:47:29Z</time>
      </trkpt>
      <trkpt lat="42.93857" lon="0.75512">
        <ele>1740.6</ele>
        <time>2019-08-18T08:47:55Z</time>
      </trkpt>
      <trkpt lat="42.93863" lon="0.75516">
        <ele>1744.93</ele>
        <time>2019-08-18T08:48:27Z</time>
      </trkpt>
      <trkpt lat="42.9387" lon="0.7552">
        <ele>1748.29</ele>
        <time>2019-08-18T08:48:57Z</time>
      </trkpt>
      <trkpt lat="42.93877" lon="0.75524">
        <ele>1753.58</ele>
        <time>2019-08-18T08:49:28Z</time>
      </trkpt>
      <trkpt lat="42.93884" lon="0.7553">
        <ele>1755.99</ele>
        <time>2019-08-18T08:49:55Z</time>
      </trkpt>
      <trkpt lat="42.93891" lon="0.7554">
        <ele>1759.83</ele>
        <time>2019-08-18T08:50:21Z</time>
      </trkpt>
      <trkpt lat="42.93897" lon="0.75541">
        <ele>1761.75</ele>
        <time>2019-08-18T08:50:43Z</time>
      </trkpt>
      <trkpt lat="42.93904" lon="0.75549">
        <ele>1766.08</ele>
        <time>2019-08-18T08:51:06Z</time>
      </trkpt>
      <trkpt lat="42.93911" lon="0.75554">
        <ele>1768.48</ele>
        <time>2019-08-18T08:51:30Z</time>
      </trkpt>
      <trkpt lat="42.93917" lon="0.75561">
        <ele>1772.33</ele>
        <time>2019-08-18T08:51:56Z</time>
      </trkpt>
      <trkpt lat="42.93925" lon="0.75566">
        <ele>1775.21</ele>
        <time>2019-08-18T08:52:22Z</time>
      </trkpt>
      <trkpt lat="42.93932" lon="0.75571">
        <ele>1778.58</ele>
        <time>2019-08-18T08:52:45Z</time>
      </trkpt>
      <trkpt lat="42.93941" lon="0.75579">
        <ele>1780.02</ele>
        <time>2019-08-18T08:53:06Z</time>
      </trkpt>
      <trkpt lat="42.9395" lon="0.75588">
        <ele>1783.38</ele>
        <time>2019-08-18T08:53:23Z</time>
      </trkpt>
      <trkpt lat="42.93959" lon="0.75593">
        <ele>1784.34</ele>
        <time>2019-08-18T08:53:35Z</time>
      </trkpt>
      <trkpt lat="42.93966" lon="0.75603">
        <ele>1786.27</ele>
        <time>2019-08-18T08:53:49Z</time>
      </trkpt>
      <trkpt lat="42.93975" lon="0.75607">
        <ele>1784.82</ele>
        <time>2019-08-18T08:54:02Z</time>
      </trkpt>
      <trkpt lat="42.93981" lon="0.75619">
        <ele>1787.71</ele>
        <time>2019-08-18T08:54:15Z</time>
      </trkpt>
      <trkpt lat="42.93989" lon="0.75627">
        <ele>1787.71</ele>
        <time>2019-08-18T08:54:28Z</time>
      </trkpt>
      <trkpt lat="42.93996" lon="0.75631">
        <ele>1789.63</ele>
        <time>2019-08-18T08:54:39Z</time>
      </trkpt>
      <trkpt lat="42.94004" lon="0.75634">
        <ele>1788.67</ele>
        <time>2019-08-18T08:54:51Z</time>
      </trkpt>
      <trkpt lat="42.94012" lon="0.75639">
        <ele>1791.07</ele>
        <time>2019-08-18T08:55:02Z</time>
      </trkpt>
      <trkpt lat="42.94018" lon="0.75642">
        <ele>1792.52</ele>
        <time>2019-08-18T08:55:24Z</time>
      </trkpt>
      <trkpt lat="42.94028" lon="0.75648">
        <ele>1790.11</ele>
        <time>2019-08-18T08:55:36Z</time>
      </trkpt>
      <trkpt lat="42.94035" lon="0.75658">
        <ele>1793.96</ele>
        <time>2019-08-18T08:55:48Z</time>
      </trkpt>
      <trkpt lat="42.9404" lon="0.75666">
        <ele>1798.28</ele>
        <time>2019-08-18T08:56:04Z</time>
      </trkpt>
      <trkpt lat="42.94048" lon="0.75676">
        <ele>1800.69</ele>
        <time>2019-08-18T08:56:20Z</time>
      </trkpt>
      <trkpt lat="42.94057" lon="0.75686">
        <ele>1800.69</ele>
        <time>2019-08-18T08:56:37Z</time>
      </trkpt>
      <trkpt lat="42.94062" lon="0.75696">
        <ele>1805.49</ele>
        <time>2019-08-18T08:56:56Z</time>
      </trkpt>
      <trkpt lat="42.94072" lon="0.75698">
        <ele>1805.97</ele>
        <time>2019-08-18T08:57:13Z</time>
      </trkpt>
      <trkpt lat="42.94081" lon="0.75703">
        <ele>1806.45</ele>
        <time>2019-08-18T08:57:29Z</time>
      </trkpt>
      <trkpt lat="42.94089" lon="0.75703">
        <ele>1807.9</ele>
        <time>2019-08-18T08:57:48Z</time>
      </trkpt>
      <trkpt lat="42.94098" lon="0.75705">
        <ele>1810.3</ele>
        <time>2019-08-18T08:58:09Z</time>
      </trkpt>
      <trkpt lat="42.94107" lon="0.75709">
        <ele>1814.63</ele>
        <time>2019-08-18T08:58:33Z</time>
      </trkpt>
      <trkpt lat="42.94116" lon="0.75714">
        <ele>1818.95</ele>
        <time>2019-08-18T08:58:57Z</time>
      </trkpt>
      <trkpt lat="42.94126" lon="0.75716">
        <ele>1819.43</ele>
        <time>2019-08-18T08:59:18Z</time>
      </trkpt>
      <trkpt lat="42.94136" lon="0.7572">
        <ele>1823.76</ele>
        <time>2019-08-18T08:59:38Z</time>
      </trkpt>
      <trkpt lat="42.94145" lon="0.75726">
        <ele>1824.72</ele>
        <time>2019-08-18T09:00:03Z</time>
      </trkpt>
      <trkpt lat="42.94155" lon="0.75727">
        <ele>1830.49</ele>
        <time>2019-08-18T09:00:23Z</time>
      </trkpt>
      <trkpt lat="42.94166" lon="0.75727">
        <ele>1830.97</ele>
        <time>2019-08-18T09:00:41Z</time>
      </trkpt>
      <trkpt lat="42.94175" lon="0.75726">
        <ele>1831.93</ele>
        <time>2019-08-18T09:00:55Z</time>
      </trkpt>
      <trkpt lat="42.94185" lon="0.75726">
        <ele>1833.85</ele>
        <time>2019-08-18T09:01:13Z</time>
      </trkpt>
      <trkpt lat="42.94196" lon="0.75727">
        <ele>1836.26</ele>
        <time>2019-08-18T09:01:30Z</time>
      </trkpt>
      <trkpt lat="42.94204" lon="0.75728">
        <ele>1839.62</ele>
        <time>2019-08-18T09:01:51Z</time>
      </trkpt>
      <trkpt lat="42.94214" lon="0.75728">
        <ele>1842.98</ele>
        <time>2019-08-18T09:02:09Z</time>
      </trkpt>
      <trkpt lat="42.94224" lon="0.75727">
        <ele>1842.98</ele>
        <time>2019-08-18T09:02:26Z</time>
      </trkpt>
      <trkpt lat="42.94233" lon="0.75732">
        <ele>1844.91</ele>
        <time>2019-08-18T09:02:46Z</time>
      </trkpt>
      <trkpt lat="42.9424" lon="0.75738">
        <ele>1845.39</ele>
        <time>2019-08-18T09:02:58Z</time>
      </trkpt>
      <trkpt lat="42.9425" lon="0.75744">
        <ele>1845.87</ele>
        <time>2019-08-18T09:03:11Z</time>
      </trkpt>
      <trkpt lat="42.94257" lon="0.75751">
        <ele>1849.71</ele>
        <time>2019-08-18T09:03:22Z</time>
      </trkpt>
      <trkpt lat="42.94265" lon="0.75753">
        <ele>1848.75</ele>
        <time>2019-08-18T09:03:32Z</time>
      </trkpt>
      <trkpt lat="42.94274" lon="0.75754">
        <ele>1849.71</ele>
        <time>2019-08-18T09:03:43Z</time>
      </trkpt>
      <trkpt lat="42.94283" lon="0.75759">
        <ele>1848.75</ele>
        <time>2019-08-18T09:03:53Z</time>
      </trkpt>
      <trkpt lat="42.94292" lon="0.75764">
        <ele>1852.6</ele>
        <time>2019-08-18T09:04:04Z</time>
      </trkpt>
      <trkpt lat="42.94301" lon="0.75766">
        <ele>1854.52</ele>
        <time>2019-08-18T09:04:16Z</time>
      </trkpt>
      <trkpt lat="42.9431" lon="0.7577">
        <ele>1855.48</ele>
        <time>2019-08-18T09:04:29Z</time>
      </trkpt>
      <trkpt lat="42.94318" lon="0.75773">
        <ele>1855.96</ele>
        <time>2019-08-18T09:04:41Z</time>
      </trkpt>
      <trkpt lat="42.94326" lon="0.75778">
        <ele>1858.37</ele>
        <time>2019-08-18T09:04:57Z</time>
      </trkpt>
      <trkpt lat="42.94335" lon="0.7578">
        <ele>1859.81</ele>
        <time>2019-08-18T09:05:12Z</time>
      </trkpt>
      <trkpt lat="42.94344" lon="0.75782">
        <ele>1862.69</ele>
        <time>2019-08-18T09:05:24Z</time>
      </trkpt>
      <trkpt lat="42.94353" lon="0.75787">
        <ele>1864.61</ele>
        <time>2019-08-18T09:05:38Z</time>
      </trkpt>
      <trkpt lat="42.94352" lon="0.75797">
        <ele>1863.65</ele>
        <time>2019-08-18T09:06:22Z</time>
      </trkpt>
      <trkpt lat="42.94347" lon="0.75808">
        <ele>1860.77</ele>
        <time>2019-08-18T09:06:32Z</time>
      </trkpt>
      <trkpt lat="42.94344" lon="0.7582">
        <ele>1864.13</ele>
        <time>2019-08-18T09:06:41Z</time>
      </trkpt>
      <trkpt lat="42.94342" lon="0.75832">
        <ele>1862.21</ele>
        <time>2019-08-18T09:06:50Z</time>
      </trkpt>
      <trkpt lat="42.94339" lon="0.75843">
        <ele>1859.81</ele>
        <time>2019-08-18T09:07:00Z</time>
      </trkpt>
      <trkpt lat="42.94337" lon="0.75856">
        <ele>1859.81</ele>
        <time>2019-08-18T09:07:10Z</time>
      </trkpt>
      <trkpt lat="42.94335" lon="0.75869">
        <ele>1858.37</ele>
        <time>2019-08-18T09:07:22Z</time>
      </trkpt>
      <trkpt lat="42.94334" lon="0.75882">
        <ele>1857.89</ele>
        <time>2019-08-18T09:07:33Z</time>
      </trkpt>
      <trkpt lat="42.94335" lon="0.75896">
        <ele>1855.48</ele>
        <time>2019-08-18T09:07:43Z</time>
      </trkpt>
      <trkpt lat="42.94336" lon="0.75909">
        <ele>1855.48</ele>
        <time>2019-08-18T09:07:53Z</time>
      </trkpt>
      <trkpt lat="42.94338" lon="0.75922">
        <ele>1855</ele>
        <time>2019-08-18T09:08:02Z</time>
      </trkpt>
      <trkpt lat="42.94342" lon="0.75933">
        <ele>1855</ele>
        <time>2019-08-18T09:08:11Z</time>
      </trkpt>
      <trkpt lat="42.94347" lon="0.75943">
        <ele>1855</ele>
        <time>2019-08-18T09:08:20Z</time>
      </trkpt>
      <trkpt lat="42.94355" lon="0.75951">
        <ele>1855</ele>
        <time>2019-08-18T09:08:28Z</time>
      </trkpt>
      <trkpt lat="42.94361" lon="0.7596">
        <ele>1854.52</ele>
        <time>2019-08-18T09:08:37Z</time>
      </trkpt>
      <trkpt lat="42.94363" lon="0.75972">
        <ele>1855</ele>
        <time>2019-08-18T09:08:47Z</time>
      </trkpt>
      <trkpt lat="42.94369" lon="0.75984">
        <ele>1855</ele>
        <time>2019-08-18T09:08:57Z</time>
      </trkpt>
      <trkpt lat="42.94374" lon="0.75996">
        <ele>1855.96</ele>
        <time>2019-08-18T09:09:08Z</time>
      </trkpt>
      <trkpt lat="42.94381" lon="0.76007">
        <ele>1855.48</ele>
        <time>2019-08-18T09:09:18Z</time>
      </trkpt>
      <trkpt lat="42.94386" lon="0.76017">
        <ele>1855.96</ele>
        <time>2019-08-18T09:09:28Z</time>
      </trkpt>
      <trkpt lat="42.94391" lon="0.76027">
        <ele>1854.52</ele>
        <time>2019-08-18T09:09:38Z</time>
      </trkpt>
      <trkpt lat="42.94396" lon="0.76037">
        <ele>1853.56</ele>
        <time>2019-08-18T09:09:50Z</time>
      </trkpt>
      <trkpt lat="42.94402" lon="0.76047">
        <ele>1853.08</ele>
        <time>2019-08-18T09:10:01Z</time>
      </trkpt>
      <trkpt lat="42.94407" lon="0.76057">
        <ele>1853.56</ele>
        <time>2019-08-18T09:10:12Z</time>
      </trkpt>
      <trkpt lat="42.94413" lon="0.76066">
        <ele>1853.08</ele>
        <time>2019-08-18T09:10:24Z</time>
      </trkpt>
      <trkpt lat="42.94414" lon="0.76078">
        <ele>1853.08</ele>
        <time>2019-08-18T09:10:40Z</time>
      </trkpt>
      <trkpt lat="42.94416" lon="0.76089">
        <ele>1852.12</ele>
        <time>2019-08-18T09:10:52Z</time>
      </trkpt>
      <trkpt lat="42.9442" lon="0.761">
        <ele>1851.64</ele>
        <time>2019-08-18T09:11:02Z</time>
      </trkpt>
      <trkpt lat="42.94419" lon="0.76112">
        <ele>1850.19</ele>
        <time>2019-08-18T09:11:13Z</time>
      </trkpt>
      <trkpt lat="42.94422" lon="0.76122">
        <ele>1847.79</ele>
        <time>2019-08-18T09:11:24Z</time>
      </trkpt>
      <trkpt lat="42.94427" lon="0.76131">
        <ele>1847.31</ele>
        <time>2019-08-18T09:11:35Z</time>
      </trkpt>
      <trkpt lat="42.9443" lon="0.76142">
        <ele>1844.91</ele>
        <time>2019-08-18T09:11:44Z</time>
      </trkpt>
      <trkpt lat="42.94433" lon="0.76153">
        <ele>1845.39</ele>
        <time>2019-08-18T09:11:55Z</time>
      </trkpt>
      <trkpt lat="42.94438" lon="0.76165">
        <ele>1845.87</ele>
        <time>2019-08-18T09:12:05Z</time>
      </trkpt>
      <trkpt lat="42.94444" lon="0.76174">
        <ele>1846.35</ele>
        <time>2019-08-18T09:12:15Z</time>
      </trkpt>
      <trkpt lat="42.94447" lon="0.76186">
        <ele>1847.79</ele>
        <time>2019-08-18T09:12:26Z</time>
      </trkpt>
      <trkpt lat="42.94452" lon="0.76197">
        <ele>1849.23</ele>
        <time>2019-08-18T09:12:37Z</time>
      </trkpt>
      <trkpt lat="42.94456" lon="0.76209">
        <ele>1850.68</ele>
        <time>2019-08-18T09:12:48Z</time>
      </trkpt>
      <trkpt lat="42.94461" lon="0.7622">
        <ele>1851.64</ele>
        <time>2019-08-18T09:13:00Z</time>
      </trkpt>
      <trkpt lat="42.94467" lon="0.76228">
        <ele>1853.56</ele>
        <time>2019-08-18T09:13:13Z</time>
      </trkpt>
      <trkpt lat="42.94473" lon="0.76238">
        <ele>1853.56</ele>
        <time>2019-08-18T09:13:25Z</time>
      </trkpt>
      <trkpt lat="42.94478" lon="0.7625">
        <ele>1855</ele>
        <time>2019-08-18T09:13:36Z</time>
      </trkpt>
      <trkpt lat="42.94486" lon="0.76257">
        <ele>1855.48</ele>
        <time>2019-08-18T09:13:47Z</time>
      </trkpt>
      <trkpt lat="42.94493" lon="0.76266">
        <ele>1857.4</ele>
        <time>2019-08-18T09:13:59Z</time>
      </trkpt>
      <trkpt lat="42.94499" lon="0.76274">
        <ele>1859.33</ele>
        <time>2019-08-18T09:14:10Z</time>
      </trkpt>
      <trkpt lat="42.94505" lon="0.76282">
        <ele>1861.25</ele>
        <time>2019-08-18T09:14:21Z</time>
      </trkpt>
      <trkpt lat="42.94508" lon="0.76293">
        <ele>1860.77</ele>
        <time>2019-08-18T09:14:30Z</time>
      </trkpt>
      <trkpt lat="42.94512" lon="0.76306">
        <ele>1860.29</ele>
        <time>2019-08-18T09:14:39Z</time>
      </trkpt>
      <trkpt lat="42.94516" lon="0.76317">
        <ele>1861.73</ele>
        <time>2019-08-18T09:14:49Z</time>
      </trkpt>
      <trkpt lat="42.94522" lon="0.76326">
        <ele>1862.21</ele>
        <time>2019-08-18T09:14:59Z</time>
      </trkpt>
      <trkpt lat="42.94529" lon="0.76333">
        <ele>1862.69</ele>
        <time>2019-08-18T09:15:08Z</time>
      </trkpt>
      <trkpt lat="42.94536" lon="0.76342">
        <ele>1863.17</ele>
        <time>2019-08-18T09:15:19Z</time>
      </trkpt>
      <trkpt lat="42.94543" lon="0.76351">
        <ele>1863.17</ele>
        <time>2019-08-18T09:15:29Z</time>
      </trkpt>
      <trkpt lat="42.9455" lon="0.7636">
        <ele>1863.17</ele>
        <time>2019-08-18T09:15:40Z</time>
      </trkpt>
      <trkpt lat="42.94553" lon="0.76372">
        <ele>1865.58</ele>
        <time>2019-08-18T09:15:53Z</time>
      </trkpt>
      <trkpt lat="42.94554" lon="0.76384">
        <ele>1868.46</ele>
        <time>2019-08-18T09:16:10Z</time>
      </trkpt>
      <trkpt lat="42.94561" lon="0.76394">
        <ele>1870.38</ele>
        <time>2019-08-18T09:16:24Z</time>
      </trkpt>
      <trkpt lat="42.94567" lon="0.76403">
        <ele>1870.86</ele>
        <time>2019-08-18T09:16:36Z</time>
      </trkpt>
      <trkpt lat="42.94572" lon="0.76415">
        <ele>1872.3</ele>
        <time>2019-08-18T09:16:49Z</time>
      </trkpt>
      <trkpt lat="42.94577" lon="0.76425">
        <ele>1873.27</ele>
        <time>2019-08-18T09:17:00Z</time>
      </trkpt>
      <trkpt lat="42.94585" lon="0.76431">
        <ele>1873.75</ele>
        <time>2019-08-18T09:17:10Z</time>
      </trkpt>
      <trkpt lat="42.94592" lon="0.76441">
        <ele>1874.71</ele>
        <time>2019-08-18T09:17:21Z</time>
      </trkpt>
      <trkpt lat="42.94597" lon="0.76453">
        <ele>1875.67</ele>
        <time>2019-08-18T09:17:33Z</time>
      </trkpt>
      <trkpt lat="42.946" lon="0.76464">
        <ele>1879.03</ele>
        <time>2019-08-18T09:17:49Z</time>
      </trkpt>
      <trkpt lat="42.94605" lon="0.76475">
        <ele>1880</ele>
        <time>2019-08-18T09:18:03Z</time>
      </trkpt>
      <trkpt lat="42.9461" lon="0.76486">
        <ele>1880.96</ele>
        <time>2019-08-18T09:18:15Z</time>
      </trkpt>
      <trkpt lat="42.94615" lon="0.76497">
        <ele>1881.44</ele>
        <time>2019-08-18T09:18:26Z</time>
      </trkpt>
      <trkpt lat="42.94618" lon="0.76509">
        <ele>1884.32</ele>
        <time>2019-08-18T09:18:40Z</time>
      </trkpt>
      <trkpt lat="42.9462" lon="0.7652">
        <ele>1884.8</ele>
        <time>2019-08-18T09:18:58Z</time>
      </trkpt>
      <trkpt lat="42.94625" lon="0.7653">
        <ele>1887.21</ele>
        <time>2019-08-18T09:19:16Z</time>
      </trkpt>
      <trkpt lat="42.94627" lon="0.76542">
        <ele>1889.13</ele>
        <time>2019-08-18T09:19:29Z</time>
      </trkpt>
      <trkpt lat="42.94634" lon="0.7655">
        <ele>1891.53</ele>
        <time>2019-08-18T09:19:45Z</time>
      </trkpt>
      <trkpt lat="42.94638" lon="0.76561">
        <ele>1893.93</ele>
        <time>2019-08-18T09:19:59Z</time>
      </trkpt>
      <trkpt lat="42.94646" lon="0.7657">
        <ele>1896.34</ele>
        <time>2019-08-18T09:20:15Z</time>
      </trkpt>
      <trkpt lat="42.9465" lon="0.76579">
        <ele>1898.26</ele>
        <time>2019-08-18T09:20:34Z</time>
      </trkpt>
      <trkpt lat="42.94653" lon="0.76588">
        <ele>1901.14</ele>
        <time>2019-08-18T09:20:50Z</time>
      </trkpt>
      <trkpt lat="42.94661" lon="0.76594">
        <ele>1903.07</ele>
        <time>2019-08-18T09:21:07Z</time>
      </trkpt>
      <trkpt lat="42.94668" lon="0.76587">
        <ele>1902.59</ele>
        <time>2019-08-18T09:21:36Z</time>
      </trkpt>
      <trkpt lat="42.94675" lon="0.76582">
        <ele>1900.66</ele>
        <time>2019-08-18T09:21:57Z</time>
      </trkpt>
      <trkpt lat="42.9467" lon="0.76583">
        <ele>1902.11</ele>
        <time>2019-08-18T09:26:41Z</time>
      </trkpt>
      <trkpt lat="42.94662" lon="0.76582">
        <ele>1901.63</ele>
        <time>2019-08-18T09:27:15Z</time>
      </trkpt>
      <trkpt lat="42.94657" lon="0.76581">
        <ele>1902.11</ele>
        <time>2019-08-18T09:29:07Z</time>
      </trkpt>
      <trkpt lat="42.94648" lon="0.76578">
        <ele>1900.66</ele>
        <time>2019-08-18T09:29:21Z</time>
      </trkpt>
      <trkpt lat="42.9464" lon="0.7658">
        <ele>1898.74</ele>
        <time>2019-08-18T09:29:39Z</time>
      </trkpt>
      <trkpt lat="42.94632" lon="0.76577">
        <ele>1897.78</ele>
        <time>2019-08-18T09:29:52Z</time>
      </trkpt>
      <trkpt lat="42.94626" lon="0.76571">
        <ele>1899.22</ele>
        <time>2019-08-18T09:30:54Z</time>
      </trkpt>
      <trkpt lat="42.94625" lon="0.76566">
        <ele>1904.51</ele>
        <time>2019-08-18T10:09:18Z</time>
      </trkpt>
      <trkpt lat="42.94625" lon="0.76554">
        <ele>1903.07</ele>
        <time>2019-08-18T10:09:36Z</time>
      </trkpt>
      <trkpt lat="42.94622" lon="0.76546">
        <ele>1900.66</ele>
        <time>2019-08-18T10:09:53Z</time>
      </trkpt>
      <trkpt lat="42.94624" lon="0.76536">
        <ele>1898.26</ele>
        <time>2019-08-18T10:10:14Z</time>
      </trkpt>
      <trkpt lat="42.94619" lon="0.76529">
        <ele>1897.3</ele>
        <time>2019-08-18T10:10:35Z</time>
      </trkpt>
      <trkpt lat="42.94611" lon="0.76531">
        <ele>1898.74</ele>
        <time>2019-08-18T10:10:48Z</time>
      </trkpt>
      <trkpt lat="42.94608" lon="0.76521">
        <ele>1897.3</ele>
        <time>2019-08-18T10:11:13Z</time>
      </trkpt>
      <trkpt lat="42.94602" lon="0.7651">
        <ele>1896.34</ele>
        <time>2019-08-18T10:11:29Z</time>
      </trkpt>
      <trkpt lat="42.94597" lon="0.765">
        <ele>1896.82</ele>
        <time>2019-08-18T10:11:45Z</time>
      </trkpt>
      <trkpt lat="42.94594" lon="0.76488">
        <ele>1895.86</ele>
        <time>2019-08-18T10:12:15Z</time>
      </trkpt>
      <trkpt lat="42.94591" lon="0.76476">
        <ele>1893.93</ele>
        <time>2019-08-18T10:12:29Z</time>
      </trkpt>
      <trkpt lat="42.94588" lon="0.76466">
        <ele>1892.49</ele>
        <time>2019-08-18T10:12:48Z</time>
      </trkpt>
      <trkpt lat="42.94582" lon="0.7646">
        <ele>1891.53</ele>
        <time>2019-08-18T10:13:06Z</time>
      </trkpt>
      <trkpt lat="42.94579" lon="0.76448">
        <ele>1889.61</ele>
        <time>2019-08-18T10:13:30Z</time>
      </trkpt>
      <trkpt lat="42.94576" lon="0.76437">
        <ele>1887.69</ele>
        <time>2019-08-18T10:13:45Z</time>
      </trkpt>
      <trkpt lat="42.94569" lon="0.76429">
        <ele>1886.24</ele>
        <time>2019-08-18T10:13:59Z</time>
      </trkpt>
      <trkpt lat="42.94563" lon="0.7642">
        <ele>1884.8</ele>
        <time>2019-08-18T10:14:10Z</time>
      </trkpt>
      <trkpt lat="42.94558" lon="0.76409">
        <ele>1885.28</ele>
        <time>2019-08-18T10:14:24Z</time>
      </trkpt>
      <trkpt lat="42.9455" lon="0.76401">
        <ele>1883.84</ele>
        <time>2019-08-18T10:14:35Z</time>
      </trkpt>
      <trkpt lat="42.94545" lon="0.76391">
        <ele>1882.88</ele>
        <time>2019-08-18T10:14:49Z</time>
      </trkpt>
      <trkpt lat="42.9454" lon="0.76379">
        <ele>1882.4</ele>
        <time>2019-08-18T10:15:18Z</time>
      </trkpt>
      <trkpt lat="42.94533" lon="0.76371">
        <ele>1884.32</ele>
        <time>2019-08-18T10:15:35Z</time>
      </trkpt>
      <trkpt lat="42.94526" lon="0.76364">
        <ele>1882.4</ele>
        <time>2019-08-18T10:15:54Z</time>
      </trkpt>
      <trkpt lat="42.9452" lon="0.76354">
        <ele>1883.36</ele>
        <time>2019-08-18T10:16:11Z</time>
      </trkpt>
      <trkpt lat="42.94512" lon="0.76347">
        <ele>1880.96</ele>
        <time>2019-08-18T10:16:29Z</time>
      </trkpt>
      <trkpt lat="42.94505" lon="0.76339">
        <ele>1880</ele>
        <time>2019-08-18T10:16:45Z</time>
      </trkpt>
      <trkpt lat="42.94499" lon="0.76329">
        <ele>1879.03</ele>
        <time>2019-08-18T10:16:59Z</time>
      </trkpt>
      <trkpt lat="42.94492" lon="0.76322">
        <ele>1879.03</ele>
        <time>2019-08-18T10:17:09Z</time>
      </trkpt>
      <trkpt lat="42.94487" lon="0.76312">
        <ele>1878.55</ele>
        <time>2019-08-18T10:17:20Z</time>
      </trkpt>
      <trkpt lat="42.94481" lon="0.76303">
        <ele>1876.15</ele>
        <time>2019-08-18T10:17:32Z</time>
      </trkpt>
      <trkpt lat="42.94475" lon="0.76293">
        <ele>1874.23</ele>
        <time>2019-08-18T10:17:46Z</time>
      </trkpt>
      <trkpt lat="42.94466" lon="0.76291">
        <ele>1873.27</ele>
        <time>2019-08-18T10:17:58Z</time>
      </trkpt>
      <trkpt lat="42.94458" lon="0.76289">
        <ele>1872.3</ele>
        <time>2019-08-18T10:18:13Z</time>
      </trkpt>
      <trkpt lat="42.94455" lon="0.76278">
        <ele>1867.5</ele>
        <time>2019-08-18T10:19:01Z</time>
      </trkpt>
      <trkpt lat="42.94458" lon="0.76266">
        <ele>1865.09</ele>
        <time>2019-08-18T10:19:20Z</time>
      </trkpt>
      <trkpt lat="42.94455" lon="0.76257">
        <ele>1863.17</ele>
        <time>2019-08-18T10:19:31Z</time>
      </trkpt>
      <trkpt lat="42.9445" lon="0.76248">
        <ele>1861.25</ele>
        <time>2019-08-18T10:19:43Z</time>
      </trkpt>
      <trkpt lat="42.94442" lon="0.76242">
        <ele>1858.37</ele>
        <time>2019-08-18T10:19:57Z</time>
      </trkpt>
      <trkpt lat="42.94435" lon="0.76236">
        <ele>1855.48</ele>
        <time>2019-08-18T10:20:10Z</time>
      </trkpt>
      <trkpt lat="42.9443" lon="0.76225">
        <ele>1852.6</ele>
        <time>2019-08-18T10:20:24Z</time>
      </trkpt>
      <trkpt lat="42.94423" lon="0.76221">
        <ele>1850.19</ele>
        <time>2019-08-18T10:20:49Z</time>
      </trkpt>
      <trkpt lat="42.94417" lon="0.76211">
        <ele>1849.23</ele>
        <time>2019-08-18T10:21:01Z</time>
      </trkpt>
      <trkpt lat="42.94412" lon="0.76201">
        <ele>1844.91</ele>
        <time>2019-08-18T10:21:12Z</time>
      </trkpt>
      <trkpt lat="42.94407" lon="0.76192">
        <ele>1843.47</ele>
        <time>2019-08-18T10:21:25Z</time>
      </trkpt>
      <trkpt lat="42.94399" lon="0.7619">
        <ele>1840.1</ele>
        <time>2019-08-18T10:21:41Z</time>
      </trkpt>
      <trkpt lat="42.9439" lon="0.76195">
        <ele>1835.77</ele>
        <time>2019-08-18T10:21:55Z</time>
      </trkpt>
      <trkpt lat="42.94382" lon="0.76192">
        <ele>1831.93</ele>
        <time>2019-08-18T10:22:14Z</time>
      </trkpt>
      <trkpt lat="42.94374" lon="0.76196">
        <ele>1827.12</ele>
        <time>2019-08-18T10:22:30Z</time>
      </trkpt>
      <trkpt lat="42.94366" lon="0.76197">
        <ele>1824.24</ele>
        <time>2019-08-18T10:22:44Z</time>
      </trkpt>
      <trkpt lat="42.94357" lon="0.76202">
        <ele>1819.43</ele>
        <time>2019-08-18T10:23:00Z</time>
      </trkpt>
      <trkpt lat="42.94351" lon="0.76207">
        <ele>1816.07</ele>
        <time>2019-08-18T10:23:17Z</time>
      </trkpt>
      <trkpt lat="42.94345" lon="0.76216">
        <ele>1812.22</ele>
        <time>2019-08-18T10:23:33Z</time>
      </trkpt>
      <trkpt lat="42.94336" lon="0.76221">
        <ele>1809.34</ele>
        <time>2019-08-18T10:23:48Z</time>
      </trkpt>
      <trkpt lat="42.94327" lon="0.76224">
        <ele>1806.45</ele>
        <time>2019-08-18T10:24:04Z</time>
      </trkpt>
      <trkpt lat="42.94317" lon="0.76224">
        <ele>1803.57</ele>
        <time>2019-08-18T10:24:18Z</time>
      </trkpt>
      <trkpt lat="42.94308" lon="0.76224">
        <ele>1800.21</ele>
        <time>2019-08-18T10:24:33Z</time>
      </trkpt>
      <trkpt lat="42.943" lon="0.76228">
        <ele>1797.8</ele>
        <time>2019-08-18T10:24:46Z</time>
      </trkpt>
      <trkpt lat="42.94292" lon="0.76232">
        <ele>1794.92</ele>
        <time>2019-08-18T10:24:59Z</time>
      </trkpt>
      <trkpt lat="42.94283" lon="0.76237">
        <ele>1792.52</ele>
        <time>2019-08-18T10:25:12Z</time>
      </trkpt>
      <trkpt lat="42.94273" lon="0.76237">
        <ele>1790.11</ele>
        <time>2019-08-18T10:25:25Z</time>
      </trkpt>
      <trkpt lat="42.94264" lon="0.76239">
        <ele>1786.75</ele>
        <time>2019-08-18T10:25:38Z</time>
      </trkpt>
      <trkpt lat="42.94255" lon="0.76242">
        <ele>1783.86</ele>
        <time>2019-08-18T10:25:50Z</time>
      </trkpt>
      <trkpt lat="42.94248" lon="0.76248">
        <ele>1780.02</ele>
        <time>2019-08-18T10:26:04Z</time>
      </trkpt>
      <trkpt lat="42.9424" lon="0.76254">
        <ele>1779.06</ele>
        <time>2019-08-18T10:26:17Z</time>
      </trkpt>
      <trkpt lat="42.94233" lon="0.76244">
        <ele>1775.69</ele>
        <time>2019-08-18T10:27:42Z</time>
      </trkpt>
      <trkpt lat="42.94232" lon="0.76254">
        <ele>1773.77</ele>
        <time>2019-08-18T10:28:25Z</time>
      </trkpt>
      <trkpt lat="42.94228" lon="0.76243">
        <ele>1772.81</ele>
        <time>2019-08-18T10:28:36Z</time>
      </trkpt>
      <trkpt lat="42.9422" lon="0.76246">
        <ele>1769.92</ele>
        <time>2019-08-18T10:28:53Z</time>
      </trkpt>
      <trkpt lat="42.94213" lon="0.76254">
        <ele>1766.08</ele>
        <time>2019-08-18T10:29:09Z</time>
      </trkpt>
      <trkpt lat="42.94207" lon="0.76264">
        <ele>1764.16</ele>
        <time>2019-08-18T10:29:20Z</time>
      </trkpt>
      <trkpt lat="42.942" lon="0.76273">
        <ele>1762.23</ele>
        <time>2019-08-18T10:29:31Z</time>
      </trkpt>
      <trkpt lat="42.94194" lon="0.76282">
        <ele>1759.83</ele>
        <time>2019-08-18T10:29:41Z</time>
      </trkpt>
      <trkpt lat="42.94187" lon="0.76292">
        <ele>1756.95</ele>
        <time>2019-08-18T10:29:53Z</time>
      </trkpt>
      <trkpt lat="42.9418" lon="0.76301">
        <ele>1755.02</ele>
        <time>2019-08-18T10:30:03Z</time>
      </trkpt>
      <trkpt lat="42.94175" lon="0.76311">
        <ele>1753.58</ele>
        <time>2019-08-18T10:30:13Z</time>
      </trkpt>
      <trkpt lat="42.94167" lon="0.76317">
        <ele>1749.74</ele>
        <time>2019-08-18T10:30:24Z</time>
      </trkpt>
      <trkpt lat="42.94162" lon="0.76327">
        <ele>1748.29</ele>
        <time>2019-08-18T10:30:39Z</time>
      </trkpt>
      <trkpt lat="42.94158" lon="0.76337">
        <ele>1745.41</ele>
        <time>2019-08-18T10:30:50Z</time>
      </trkpt>
      <trkpt lat="42.94153" lon="0.76347">
        <ele>1742.05</ele>
        <time>2019-08-18T10:31:02Z</time>
      </trkpt>
      <trkpt lat="42.94153" lon="0.76357">
        <ele>1741.57</ele>
        <time>2019-08-18T10:31:15Z</time>
      </trkpt>
      <trkpt lat="42.94156" lon="0.76368">
        <ele>1739.16</ele>
        <time>2019-08-18T10:31:26Z</time>
      </trkpt>
      <trkpt lat="42.94155" lon="0.76382">
        <ele>1737.24</ele>
        <time>2019-08-18T10:31:38Z</time>
      </trkpt>
      <trkpt lat="42.94154" lon="0.76395">
        <ele>1735.8</ele>
        <time>2019-08-18T10:31:50Z</time>
      </trkpt>
      <trkpt lat="42.94154" lon="0.76406">
        <ele>1732.91</ele>
        <time>2019-08-18T10:32:02Z</time>
      </trkpt>
      <trkpt lat="42.94154" lon="0.76418">
        <ele>1731.95</ele>
        <time>2019-08-18T10:32:13Z</time>
      </trkpt>
      <trkpt lat="42.94153" lon="0.76432">
        <ele>1728.11</ele>
        <time>2019-08-18T10:32:26Z</time>
      </trkpt>
      <trkpt lat="42.94152" lon="0.76445">
        <ele>1726.18</ele>
        <time>2019-08-18T10:32:38Z</time>
      </trkpt>
      <trkpt lat="42.9415" lon="0.76458">
        <ele>1723.78</ele>
        <time>2019-08-18T10:32:51Z</time>
      </trkpt>
      <trkpt lat="42.94147" lon="0.76469">
        <ele>1720.9</ele>
        <time>2019-08-18T10:33:03Z</time>
      </trkpt>
      <trkpt lat="42.94145" lon="0.7648">
        <ele>1717.53</ele>
        <time>2019-08-18T10:33:21Z</time>
      </trkpt>
      <trkpt lat="42.9414" lon="0.76492">
        <ele>1713.69</ele>
        <time>2019-08-18T10:33:37Z</time>
      </trkpt>
      <trkpt lat="42.94135" lon="0.76502">
        <ele>1710.32</ele>
        <time>2019-08-18T10:33:50Z</time>
      </trkpt>
      <trkpt lat="42.9413" lon="0.76511">
        <ele>1705.04</ele>
        <time>2019-08-18T10:34:10Z</time>
      </trkpt>
      <trkpt lat="42.94126" lon="0.76518">
        <ele>1701.67</ele>
        <time>2019-08-18T10:34:28Z</time>
      </trkpt>
      <trkpt lat="42.94118" lon="0.76524">
        <ele>1697.34</ele>
        <time>2019-08-18T10:34:50Z</time>
      </trkpt>
      <trkpt lat="42.94115" lon="0.76537">
        <ele>1693.5</ele>
        <time>2019-08-18T10:35:07Z</time>
      </trkpt>
      <trkpt lat="42.94106" lon="0.76528">
        <ele>1691.1</ele>
        <time>2019-08-18T10:35:51Z</time>
      </trkpt>
      <trkpt lat="42.94103" lon="0.7654">
        <ele>1685.81</ele>
        <time>2019-08-18T10:37:10Z</time>
      </trkpt>
      <trkpt lat="42.94095" lon="0.76549">
        <ele>1681.96</ele>
        <time>2019-08-18T10:37:26Z</time>
      </trkpt>
      <trkpt lat="42.94088" lon="0.76537">
        <ele>1678.12</ele>
        <time>2019-08-18T10:37:44Z</time>
      </trkpt>
      <trkpt lat="42.9408" lon="0.76536">
        <ele>1674.27</ele>
        <time>2019-08-18T10:38:01Z</time>
      </trkpt>
      <trkpt lat="42.94071" lon="0.76543">
        <ele>1670.43</ele>
        <time>2019-08-18T10:38:23Z</time>
      </trkpt>
      <trkpt lat="42.94066" lon="0.76529">
        <ele>1667.54</ele>
        <time>2019-08-18T10:38:43Z</time>
      </trkpt>
      <trkpt lat="42.94063" lon="0.76517">
        <ele>1666.58</ele>
        <time>2019-08-18T10:38:53Z</time>
      </trkpt>
      <trkpt lat="42.94056" lon="0.76512">
        <ele>1668.51</ele>
        <time>2019-08-18T10:39:02Z</time>
      </trkpt>
      <trkpt lat="42.9405" lon="0.76501">
        <ele>1667.06</ele>
        <time>2019-08-18T10:39:11Z</time>
      </trkpt>
      <trkpt lat="42.94045" lon="0.7649">
        <ele>1666.1</ele>
        <time>2019-08-18T10:39:20Z</time>
      </trkpt>
      <trkpt lat="42.94039" lon="0.76483">
        <ele>1664.66</ele>
        <time>2019-08-18T10:39:29Z</time>
      </trkpt>
      <trkpt lat="42.94033" lon="0.76471">
        <ele>1664.66</ele>
        <time>2019-08-18T10:39:38Z</time>
      </trkpt>
      <trkpt lat="42.9403" lon="0.7646">
        <ele>1664.18</ele>
        <time>2019-08-18T10:39:48Z</time>
      </trkpt>
      <trkpt lat="42.94022" lon="0.76453">
        <ele>1665.14</ele>
        <time>2019-08-18T10:40:00Z</time>
      </trkpt>
      <trkpt lat="42.94017" lon="0.76442">
        <ele>1664.18</ele>
        <time>2019-08-18T10:40:10Z</time>
      </trkpt>
      <trkpt lat="42.94013" lon="0.7643">
        <ele>1664.18</ele>
        <time>2019-08-18T10:40:19Z</time>
      </trkpt>
      <trkpt lat="42.94008" lon="0.7642">
        <ele>1664.66</ele>
        <time>2019-08-18T10:40:31Z</time>
      </trkpt>
      <trkpt lat="42.94004" lon="0.76411">
        <ele>1662.26</ele>
        <time>2019-08-18T10:40:44Z</time>
      </trkpt>
      <trkpt lat="42.93999" lon="0.76406">
        <ele>1660.81</ele>
        <time>2019-08-18T10:41:59Z</time>
      </trkpt>
      <trkpt lat="42.94" lon="0.76395">
        <ele>1657.93</ele>
        <time>2019-08-18T10:42:13Z</time>
      </trkpt>
      <trkpt lat="42.93997" lon="0.76385">
        <ele>1654.57</ele>
        <time>2019-08-18T10:42:30Z</time>
      </trkpt>
      <trkpt lat="42.9399" lon="0.76385">
        <ele>1650.72</ele>
        <time>2019-08-18T10:42:49Z</time>
      </trkpt>
      <trkpt lat="42.9398" lon="0.76385">
        <ele>1647.84</ele>
        <time>2019-08-18T10:43:06Z</time>
      </trkpt>
      <trkpt lat="42.9397" lon="0.76385">
        <ele>1643.99</ele>
        <time>2019-08-18T10:43:22Z</time>
      </trkpt>
      <trkpt lat="42.93969" lon="0.76378">
        <ele>1641.59</ele>
        <time>2019-08-18T10:43:49Z</time>
      </trkpt>
      <trkpt lat="42.93969" lon="0.76364">
        <ele>1638.7</ele>
        <time>2019-08-18T10:44:02Z</time>
      </trkpt>
      <trkpt lat="42.93967" lon="0.76351">
        <ele>1636.78</ele>
        <time>2019-08-18T10:44:15Z</time>
      </trkpt>
      <trkpt lat="42.93961" lon="0.76348">
        <ele>1632.94</ele>
        <time>2019-08-18T10:44:30Z</time>
      </trkpt>
      <trkpt lat="42.93952" lon="0.76353">
        <ele>1628.61</ele>
        <time>2019-08-18T10:44:46Z</time>
      </trkpt>
      <trkpt lat="42.93943" lon="0.76352">
        <ele>1624.77</ele>
        <time>2019-08-18T10:45:02Z</time>
      </trkpt>
      <trkpt lat="42.93934" lon="0.76354">
        <ele>1619.96</ele>
        <time>2019-08-18T10:45:18Z</time>
      </trkpt>
      <trkpt lat="42.93927" lon="0.76349">
        <ele>1617.07</ele>
        <time>2019-08-18T10:45:43Z</time>
      </trkpt>
      <trkpt lat="42.93929" lon="0.76333">
        <ele>1615.15</ele>
        <time>2019-08-18T10:45:53Z</time>
      </trkpt>
      <trkpt lat="42.93923" lon="0.76337">
        <ele>1612.27</ele>
        <time>2019-08-18T10:46:12Z</time>
      </trkpt>
      <trkpt lat="42.93921" lon="0.76322">
        <ele>1609.86</ele>
        <time>2019-08-18T10:46:25Z</time>
      </trkpt>
      <trkpt lat="42.93921" lon="0.76309">
        <ele>1609.38</ele>
        <time>2019-08-18T10:46:36Z</time>
      </trkpt>
      <trkpt lat="42.93919" lon="0.76302">
        <ele>1607.94</ele>
        <time>2019-08-18T10:46:50Z</time>
      </trkpt>
      <trkpt lat="42.93916" lon="0.76313">
        <ele>1606.02</ele>
        <time>2019-08-18T10:49:02Z</time>
      </trkpt>
      <trkpt lat="42.93909" lon="0.76301">
        <ele>1602.66</ele>
        <time>2019-08-18T10:49:16Z</time>
      </trkpt>
      <trkpt lat="42.93904" lon="0.76291">
        <ele>1598.81</ele>
        <time>2019-08-18T10:49:31Z</time>
      </trkpt>
      <trkpt lat="42.93898" lon="0.76282">
        <ele>1597.37</ele>
        <time>2019-08-18T10:49:44Z</time>
      </trkpt>
      <trkpt lat="42.9389" lon="0.76276">
        <ele>1595.93</ele>
        <time>2019-08-18T10:49:56Z</time>
      </trkpt>
      <trkpt lat="42.93883" lon="0.76268">
        <ele>1595.93</ele>
        <time>2019-08-18T10:50:06Z</time>
      </trkpt>
      <trkpt lat="42.93874" lon="0.76265">
        <ele>1594</ele>
        <time>2019-08-18T10:50:18Z</time>
      </trkpt>
      <trkpt lat="42.93865" lon="0.76256">
        <ele>1593.04</ele>
        <time>2019-08-18T10:50:29Z</time>
      </trkpt>
      <trkpt lat="42.93858" lon="0.76248">
        <ele>1591.12</ele>
        <time>2019-08-18T10:50:40Z</time>
      </trkpt>
      <trkpt lat="42.9385" lon="0.76239">
        <ele>1591.12</ele>
        <time>2019-08-18T10:50:53Z</time>
      </trkpt>
      <trkpt lat="42.93842" lon="0.76232">
        <ele>1589.2</ele>
        <time>2019-08-18T10:51:08Z</time>
      </trkpt>
      <trkpt lat="42.93831" lon="0.76223">
        <ele>1587.27</ele>
        <time>2019-08-18T10:51:21Z</time>
      </trkpt>
      <trkpt lat="42.93822" lon="0.76215">
        <ele>1585.35</ele>
        <time>2019-08-18T10:51:32Z</time>
      </trkpt>
      <trkpt lat="42.93814" lon="0.76204">
        <ele>1583.91</ele>
        <time>2019-08-18T10:51:44Z</time>
      </trkpt>
      <trkpt lat="42.93808" lon="0.76195">
        <ele>1581.51</ele>
        <time>2019-08-18T10:51:55Z</time>
      </trkpt>
      <trkpt lat="42.93804" lon="0.76182">
        <ele>1580.06</ele>
        <time>2019-08-18T10:52:06Z</time>
      </trkpt>
      <trkpt lat="42.93799" lon="0.76171">
        <ele>1577.18</ele>
        <time>2019-08-18T10:52:20Z</time>
      </trkpt>
      <trkpt lat="42.93793" lon="0.76163">
        <ele>1574.78</ele>
        <time>2019-08-18T10:52:33Z</time>
      </trkpt>
      <trkpt lat="42.93789" lon="0.76152">
        <ele>1571.89</ele>
        <time>2019-08-18T10:52:46Z</time>
      </trkpt>
      <trkpt lat="42.93781" lon="0.76144">
        <ele>1568.53</ele>
        <time>2019-08-18T10:53:00Z</time>
      </trkpt>
      <trkpt lat="42.93774" lon="0.76133">
        <ele>1568.05</ele>
        <time>2019-08-18T10:53:10Z</time>
      </trkpt>
      <trkpt lat="42.93767" lon="0.76128">
        <ele>1565.16</ele>
        <time>2019-08-18T10:53:24Z</time>
      </trkpt>
      <trkpt lat="42.93758" lon="0.76122">
        <ele>1562.28</ele>
        <time>2019-08-18T10:53:38Z</time>
      </trkpt>
      <trkpt lat="42.93751" lon="0.76115">
        <ele>1559.4</ele>
        <time>2019-08-18T10:53:50Z</time>
      </trkpt>
      <trkpt lat="42.93743" lon="0.76111">
        <ele>1556.51</ele>
        <time>2019-08-18T10:54:09Z</time>
      </trkpt>
      <trkpt lat="42.93736" lon="0.76106">
        <ele>1554.59</ele>
        <time>2019-08-18T10:54:26Z</time>
      </trkpt>
      <trkpt lat="42.9373" lon="0.76098">
        <ele>1550.74</ele>
        <time>2019-08-18T10:54:42Z</time>
      </trkpt>
      <trkpt lat="42.93725" lon="0.76088">
        <ele>1548.34</ele>
        <time>2019-08-18T10:54:57Z</time>
      </trkpt>
      <trkpt lat="42.93719" lon="0.76093">
        <ele>1542.57</ele>
        <time>2019-08-18T10:55:14Z</time>
      </trkpt>
      <trkpt lat="42.93711" lon="0.76088">
        <ele>1540.17</ele>
        <time>2019-08-18T10:55:32Z</time>
      </trkpt>
      <trkpt lat="42.93706" lon="0.76085">
        <ele>1535.84</ele>
        <time>2019-08-18T10:55:51Z</time>
      </trkpt>
      <trkpt lat="42.93703" lon="0.76088">
        <ele>1532.48</ele>
        <time>2019-08-18T10:56:10Z</time>
      </trkpt>
      <trkpt lat="42.93698" lon="0.76086">
        <ele>1530.08</ele>
        <time>2019-08-18T10:56:26Z</time>
      </trkpt>
      <trkpt lat="42.93691" lon="0.76079">
        <ele>1527.67</ele>
        <time>2019-08-18T10:56:38Z</time>
      </trkpt>
      <trkpt lat="42.93683" lon="0.76074">
        <ele>1523.83</ele>
        <time>2019-08-18T10:56:50Z</time>
      </trkpt>
      <trkpt lat="42.93675" lon="0.76067">
        <ele>1521.9</ele>
        <time>2019-08-18T10:57:04Z</time>
      </trkpt>
      <trkpt lat="42.93667" lon="0.76061">
        <ele>1519.5</ele>
        <time>2019-08-18T10:57:16Z</time>
      </trkpt>
      <trkpt lat="42.9366" lon="0.76056">
        <ele>1516.14</ele>
        <time>2019-08-18T10:57:37Z</time>
      </trkpt>
      <trkpt lat="42.93647" lon="0.76057">
        <ele>1509.89</ele>
        <time>2019-08-18T10:58:10Z</time>
      </trkpt>
      <trkpt lat="42.93641" lon="0.76054">
        <ele>1504.12</ele>
        <time>2019-08-18T10:58:33Z</time>
      </trkpt>
      <trkpt lat="42.93635" lon="0.7605">
        <ele>1500.76</ele>
        <time>2019-08-18T10:58:50Z</time>
      </trkpt>
      <trkpt lat="42.93631" lon="0.76049">
        <ele>1497.87</ele>
        <time>2019-08-18T10:59:11Z</time>
      </trkpt>
      <trkpt lat="42.93625" lon="0.76049">
        <ele>1497.87</ele>
        <time>2019-08-18T11:02:39Z</time>
      </trkpt>
      <trkpt lat="42.93617" lon="0.7605">
        <ele>1498.83</ele>
        <time>2019-08-18T11:03:01Z</time>
      </trkpt>
      <trkpt lat="42.93612" lon="0.76049">
        <ele>1498.83</ele>
        <time>2019-08-18T11:03:15Z</time>
      </trkpt>
      <trkpt lat="42.93605" lon="0.76047">
        <ele>1500.27</ele>
        <time>2019-08-18T11:03:29Z</time>
      </trkpt>
      <trkpt lat="42.93602" lon="0.76046">
        <ele>1502.2</ele>
        <time>2019-08-18T11:03:49Z</time>
      </trkpt>
      <trkpt lat="42.93589" lon="0.76056">
        <ele>1499.31</ele>
        <time>2019-08-18T11:04:11Z</time>
      </trkpt>
      <trkpt lat="42.93582" lon="0.76065">
        <ele>1495.95</ele>
        <time>2019-08-18T11:04:29Z</time>
      </trkpt>
      <trkpt lat="42.93573" lon="0.76074">
        <ele>1492.1</ele>
        <time>2019-08-18T11:04:50Z</time>
      </trkpt>
      <trkpt lat="42.93564" lon="0.76091">
        <ele>1489.22</ele>
        <time>2019-08-18T11:05:12Z</time>
      </trkpt>
      <trkpt lat="42.93555" lon="0.76104">
        <ele>1488.26</ele>
        <time>2019-08-18T11:05:23Z</time>
      </trkpt>
      <trkpt lat="42.93544" lon="0.76115">
        <ele>1485.37</ele>
        <time>2019-08-18T11:05:41Z</time>
      </trkpt>
      <trkpt lat="42.93534" lon="0.76127">
        <ele>1482.49</ele>
        <time>2019-08-18T11:06:00Z</time>
      </trkpt>
      <trkpt lat="42.93526" lon="0.76131">
        <ele>1482.01</ele>
        <time>2019-08-18T11:06:12Z</time>
      </trkpt>
      <trkpt lat="42.93519" lon="0.7614">
        <ele>1480.57</ele>
        <time>2019-08-18T11:06:26Z</time>
      </trkpt>
      <trkpt lat="42.93509" lon="0.76145">
        <ele>1479.13</ele>
        <time>2019-08-18T11:06:40Z</time>
      </trkpt>
      <trkpt lat="42.93498" lon="0.7615">
        <ele>1477.68</ele>
        <time>2019-08-18T11:06:53Z</time>
      </trkpt>
      <trkpt lat="42.93488" lon="0.76147">
        <ele>1476.24</ele>
        <time>2019-08-18T11:07:05Z</time>
      </trkpt>
      <trkpt lat="42.93479" lon="0.76144">
        <ele>1473.36</ele>
        <time>2019-08-18T11:07:15Z</time>
      </trkpt>
      <trkpt lat="42.9347" lon="0.76136">
        <ele>1471.44</ele>
        <time>2019-08-18T11:07:25Z</time>
      </trkpt>
      <trkpt lat="42.93464" lon="0.76121">
        <ele>1470.95</ele>
        <time>2019-08-18T11:07:36Z</time>
      </trkpt>
      <trkpt lat="42.93456" lon="0.76118">
        <ele>1470.47</ele>
        <time>2019-08-18T11:07:50Z</time>
      </trkpt>
      <trkpt lat="42.93448" lon="0.76116">
        <ele>1470.47</ele>
        <time>2019-08-18T11:08:06Z</time>
      </trkpt>
      <trkpt lat="42.93441" lon="0.76121">
        <ele>1470.95</ele>
        <time>2019-08-18T11:08:37Z</time>
      </trkpt>
      <trkpt lat="42.93441" lon="0.76131">
        <ele>1469.99</ele>
        <time>2019-08-18T11:08:57Z</time>
      </trkpt>
      <trkpt lat="42.93437" lon="0.76119">
        <ele>1470.47</ele>
        <time>2019-08-18T11:09:04Z</time>
      </trkpt>
      <trkpt lat="42.93431" lon="0.76112">
        <ele>1471.44</ele>
        <time>2019-08-18T11:09:13Z</time>
      </trkpt>
      <trkpt lat="42.93437" lon="0.7612">
        <ele>1469.99</ele>
        <time>2019-08-18T11:09:54Z</time>
      </trkpt>
      <trkpt lat="42.93432" lon="0.76108">
        <ele>1469.99</ele>
        <time>2019-08-18T11:10:00Z</time>
      </trkpt>
      <trkpt lat="42.93426" lon="0.76097">
        <ele>1470.47</ele>
        <time>2019-08-18T11:10:04Z</time>
      </trkpt>
      <trkpt lat="42.93436" lon="0.76094">
        <ele>1469.99</ele>
        <time>2019-08-18T11:10:09Z</time>
      </trkpt>
      <trkpt lat="42.93438" lon="0.76111">
        <ele>1469.51</ele>
        <time>2019-08-18T11:10:32Z</time>
      </trkpt>
      <trkpt lat="42.9345" lon="0.76124">
        <ele>1469.51</ele>
        <time>2019-08-18T11:10:43Z</time>
      </trkpt>
      <trkpt lat="42.93456" lon="0.76126">
        <ele>1469.51</ele>
        <time>2019-08-18T11:10:58Z</time>
      </trkpt>
      <trkpt lat="42.93456" lon="0.76127">
        <ele>1469.99</ele>
        <time>2019-08-18T11:11:05Z</time>
      </trkpt>
      <trkpt lat="42.93445" lon="0.76129">
        <ele>1469.99</ele>
        <time>2019-08-18T11:11:12Z</time>
      </trkpt>
      <trkpt lat="42.93438" lon="0.76129">
        <ele>1469.51</ele>
        <time>2019-08-18T11:11:49Z</time>
      </trkpt>
      <trkpt lat="42.93432" lon="0.76119">
        <ele>1469.51</ele>
        <time>2019-08-18T11:12:07Z</time>
      </trkpt>
      <trkpt lat="42.93425" lon="0.76112">
        <ele>1468.55</ele>
        <time>2019-08-18T11:12:19Z</time>
      </trkpt>
      <trkpt lat="42.93417" lon="0.76103">
        <ele>1468.55</ele>
        <time>2019-08-18T11:12:31Z</time>
      </trkpt>
      <trkpt lat="42.93412" lon="0.76091">
        <ele>1469.03</ele>
        <time>2019-08-18T11:12:42Z</time>
      </trkpt>
      <trkpt lat="42.93406" lon="0.76097">
        <ele>1469.03</ele>
        <time>2019-08-18T11:12:55Z</time>
      </trkpt>
      <trkpt lat="42.93398" lon="0.76106">
        <ele>1469.99</ele>
        <time>2019-08-18T11:13:06Z</time>
      </trkpt>
      <trkpt lat="42.93389" lon="0.761">
        <ele>1469.03</ele>
        <time>2019-08-18T11:13:18Z</time>
      </trkpt>
      <trkpt lat="42.93379" lon="0.76097">
        <ele>1468.07</ele>
        <time>2019-08-18T11:13:28Z</time>
      </trkpt>
      <trkpt lat="42.93369" lon="0.76091">
        <ele>1467.11</ele>
        <time>2019-08-18T11:13:40Z</time>
      </trkpt>
      <trkpt lat="42.93357" lon="0.76085">
        <ele>1465.67</ele>
        <time>2019-08-18T11:13:52Z</time>
      </trkpt>
      <trkpt lat="42.93348" lon="0.76084">
        <ele>1463.74</ele>
        <time>2019-08-18T11:14:05Z</time>
      </trkpt>
      <trkpt lat="42.93353" lon="0.76099">
        <ele>1461.34</ele>
        <time>2019-08-18T11:14:21Z</time>
      </trkpt>
      <trkpt lat="42.9336" lon="0.76111">
        <ele>1458.46</ele>
        <time>2019-08-18T11:14:32Z</time>
      </trkpt>
      <trkpt lat="42.93367" lon="0.76125">
        <ele>1456.05</ele>
        <time>2019-08-18T11:14:45Z</time>
      </trkpt>
      <trkpt lat="42.93373" lon="0.76146">
        <ele>1451.73</ele>
        <time>2019-08-18T11:15:07Z</time>
      </trkpt>
      <trkpt lat="42.93374" lon="0.76167">
        <ele>1447.4</ele>
        <time>2019-08-18T11:15:25Z</time>
      </trkpt>
      <trkpt lat="42.93361" lon="0.76176">
        <ele>1446.92</ele>
        <time>2019-08-18T11:15:37Z</time>
      </trkpt>
      <trkpt lat="42.93351" lon="0.76184">
        <ele>1446.44</ele>
        <time>2019-08-18T11:15:47Z</time>
      </trkpt>
      <trkpt lat="42.93337" lon="0.76191">
        <ele>1445</ele>
        <time>2019-08-18T11:15:58Z</time>
      </trkpt>
      <trkpt lat="42.93326" lon="0.76199">
        <ele>1444.52</ele>
        <time>2019-08-18T11:16:07Z</time>
      </trkpt>
      <trkpt lat="42.93315" lon="0.76197">
        <ele>1443.56</ele>
        <time>2019-08-18T11:16:17Z</time>
      </trkpt>
      <trkpt lat="42.93304" lon="0.76189">
        <ele>1442.11</ele>
        <time>2019-08-18T11:16:28Z</time>
      </trkpt>
      <trkpt lat="42.93292" lon="0.76188">
        <ele>1441.63</ele>
        <time>2019-08-18T11:16:38Z</time>
      </trkpt>
      <trkpt lat="42.93282" lon="0.76198">
        <ele>1440.67</ele>
        <time>2019-08-18T11:16:46Z</time>
      </trkpt>
      <trkpt lat="42.93273" lon="0.76203">
        <ele>1439.71</ele>
        <time>2019-08-18T11:16:55Z</time>
      </trkpt>
      <trkpt lat="42.93261" lon="0.76202">
        <ele>1438.75</ele>
        <time>2019-08-18T11:17:05Z</time>
      </trkpt>
      <trkpt lat="42.93249" lon="0.76193">
        <ele>1437.31</ele>
        <time>2019-08-18T11:17:18Z</time>
      </trkpt>
      <trkpt lat="42.93238" lon="0.76201">
        <ele>1435.39</ele>
        <time>2019-08-18T11:17:28Z</time>
      </trkpt>
      <trkpt lat="42.93228" lon="0.76219">
        <ele>1432.02</ele>
        <time>2019-08-18T11:17:46Z</time>
      </trkpt>
      <trkpt lat="42.93215" lon="0.76228">
        <ele>1431.54</ele>
        <time>2019-08-18T11:17:57Z</time>
      </trkpt>
      <trkpt lat="42.93212" lon="0.76251">
        <ele>1428.18</ele>
        <time>2019-08-18T11:18:11Z</time>
      </trkpt>
      <trkpt lat="42.93218" lon="0.76265">
        <ele>1426.25</ele>
        <time>2019-08-18T11:18:25Z</time>
      </trkpt>
      <trkpt lat="42.93219" lon="0.76283">
        <ele>1423.85</ele>
        <time>2019-08-18T11:18:38Z</time>
      </trkpt>
      <trkpt lat="42.93215" lon="0.76301">
        <ele>1422.41</ele>
        <time>2019-08-18T11:18:50Z</time>
      </trkpt>
      <trkpt lat="42.93208" lon="0.76311">
        <ele>1420.49</ele>
        <time>2019-08-18T11:19:00Z</time>
      </trkpt>
      <trkpt lat="42.93205" lon="0.76327">
        <ele>1419.04</ele>
        <time>2019-08-18T11:19:11Z</time>
      </trkpt>
      <trkpt lat="42.93203" lon="0.76342">
        <ele>1417.12</ele>
        <time>2019-08-18T11:19:23Z</time>
      </trkpt>
      <trkpt lat="42.93191" lon="0.76354">
        <ele>1414.72</ele>
        <time>2019-08-18T11:19:33Z</time>
      </trkpt>
      <trkpt lat="42.93182" lon="0.76351">
        <ele>1414.24</ele>
        <time>2019-08-18T11:19:40Z</time>
      </trkpt>
      <trkpt lat="42.9317" lon="0.7635">
        <ele>1411.35</ele>
        <time>2019-08-18T11:19:56Z</time>
      </trkpt>
      <trkpt lat="42.93158" lon="0.76353">
        <ele>1409.91</ele>
        <time>2019-08-18T11:20:05Z</time>
      </trkpt>
      <trkpt lat="42.9315" lon="0.76365">
        <ele>1408.47</ele>
        <time>2019-08-18T11:20:14Z</time>
      </trkpt>
      <trkpt lat="42.93148" lon="0.76382">
        <ele>1407.51</ele>
        <time>2019-08-18T11:20:23Z</time>
      </trkpt>
      <trkpt lat="42.9314" lon="0.76403">
        <ele>1405.1</ele>
        <time>2019-08-18T11:20:36Z</time>
      </trkpt>
      <trkpt lat="42.93135" lon="0.76417">
        <ele>1403.18</ele>
        <time>2019-08-18T11:20:48Z</time>
      </trkpt>
      <trkpt lat="42.93132" lon="0.76431">
        <ele>1401.26</ele>
        <time>2019-08-18T11:21:01Z</time>
      </trkpt>
      <trkpt lat="42.93129" lon="0.76445">
        <ele>1399.34</ele>
        <time>2019-08-18T11:21:11Z</time>
      </trkpt>
      <trkpt lat="42.93133" lon="0.76461">
        <ele>1397.41</ele>
        <time>2019-08-18T11:21:21Z</time>
      </trkpt>
      <trkpt lat="42.93134" lon="0.76479">
        <ele>1395.97</ele>
        <time>2019-08-18T11:21:32Z</time>
      </trkpt>
      <trkpt lat="42.93135" lon="0.76494">
        <ele>1394.05</ele>
        <time>2019-08-18T11:21:43Z</time>
      </trkpt>
      <trkpt lat="42.93133" lon="0.76512">
        <ele>1392.13</ele>
        <time>2019-08-18T11:21:54Z</time>
      </trkpt>
      <trkpt lat="42.93128" lon="0.76531">
        <ele>1391.17</ele>
        <time>2019-08-18T11:22:08Z</time>
      </trkpt>
      <trkpt lat="42.93111" lon="0.76552">
        <ele>1389.24</ele>
        <time>2019-08-18T11:22:50Z</time>
      </trkpt>
      <trkpt lat="42.93098" lon="0.76558">
        <ele>1386.36</ele>
        <time>2019-08-18T11:23:01Z</time>
      </trkpt>
      <trkpt lat="42.9309" lon="0.76571">
        <ele>1385.4</ele>
        <time>2019-08-18T11:23:11Z</time>
      </trkpt>
      <trkpt lat="42.93083" lon="0.76592">
        <ele>1383.47</ele>
        <time>2019-08-18T11:23:23Z</time>
      </trkpt>
      <trkpt lat="42.93074" lon="0.76616">
        <ele>1381.07</ele>
        <time>2019-08-18T11:23:40Z</time>
      </trkpt>
      <trkpt lat="42.93076" lon="0.76632">
        <ele>1378.67</ele>
        <time>2019-08-18T11:23:52Z</time>
      </trkpt>
      <trkpt lat="42.93079" lon="0.76653">
        <ele>1377.23</ele>
        <time>2019-08-18T11:24:04Z</time>
      </trkpt>
      <trkpt lat="42.93085" lon="0.76665">
        <ele>1375.78</ele>
        <time>2019-08-18T11:24:12Z</time>
      </trkpt>
      <trkpt lat="42.93089" lon="0.76684">
        <ele>1373.86</ele>
        <time>2019-08-18T11:24:25Z</time>
      </trkpt>
      <trkpt lat="42.93089" lon="0.76705">
        <ele>1370.98</ele>
        <time>2019-08-18T11:24:39Z</time>
      </trkpt>
      <trkpt lat="42.93086" lon="0.76724">
        <ele>1369.05</ele>
        <time>2019-08-18T11:24:49Z</time>
      </trkpt>
      <trkpt lat="42.93075" lon="0.76737">
        <ele>1367.61</ele>
        <time>2019-08-18T11:25:00Z</time>
      </trkpt>
      <trkpt lat="42.93069" lon="0.76748">
        <ele>1366.65</ele>
        <time>2019-08-18T11:25:09Z</time>
      </trkpt>
      <trkpt lat="42.93057" lon="0.76755">
        <ele>1364.25</ele>
        <time>2019-08-18T11:25:19Z</time>
      </trkpt>
      <trkpt lat="42.93048" lon="0.76761">
        <ele>1362.81</ele>
        <time>2019-08-18T11:25:27Z</time>
      </trkpt>
      <trkpt lat="42.93042" lon="0.76776">
        <ele>1360.4</ele>
        <time>2019-08-18T11:25:40Z</time>
      </trkpt>
      <trkpt lat="42.93042" lon="0.76795">
        <ele>1359.44</ele>
        <time>2019-08-18T11:25:51Z</time>
      </trkpt>
      <trkpt lat="42.93034" lon="0.76809">
        <ele>1357.52</ele>
        <time>2019-08-18T11:26:02Z</time>
      </trkpt>
      <trkpt lat="42.93021" lon="0.76817">
        <ele>1355.12</ele>
        <time>2019-08-18T11:26:12Z</time>
      </trkpt>
      <trkpt lat="42.93016" lon="0.76831">
        <ele>1354.15</ele>
        <time>2019-08-18T11:26:18Z</time>
      </trkpt>
      <trkpt lat="42.9301" lon="0.76848">
        <ele>1352.23</ele>
        <time>2019-08-18T11:26:29Z</time>
      </trkpt>
      <trkpt lat="42.93002" lon="0.76863">
        <ele>1350.31</ele>
        <time>2019-08-18T11:26:42Z</time>
      </trkpt>
      <trkpt lat="42.92994" lon="0.76877">
        <ele>1348.87</ele>
        <time>2019-08-18T11:26:55Z</time>
      </trkpt>
      <trkpt lat="42.92983" lon="0.76894">
        <ele>1345.98</ele>
        <time>2019-08-18T11:27:06Z</time>
      </trkpt>
      <trkpt lat="42.92974" lon="0.76907">
        <ele>1344.54</ele>
        <time>2019-08-18T11:27:15Z</time>
      </trkpt>
      <trkpt lat="42.92972" lon="0.76927">
        <ele>1342.14</ele>
        <time>2019-08-18T11:27:30Z</time>
      </trkpt>
      <trkpt lat="42.92969" lon="0.76945">
        <ele>1340.22</ele>
        <time>2019-08-18T11:27:40Z</time>
      </trkpt>
      <trkpt lat="42.92967" lon="0.76966">
        <ele>1338.29</ele>
        <time>2019-08-18T11:27:52Z</time>
      </trkpt>
      <trkpt lat="42.92965" lon="0.76989">
        <ele>1336.37</ele>
        <time>2019-08-18T11:28:01Z</time>
      </trkpt>
      <trkpt lat="42.92959" lon="0.77004">
        <ele>1334.45</ele>
        <time>2019-08-18T11:28:09Z</time>
      </trkpt>
      <trkpt lat="42.92957" lon="0.77022">
        <ele>1332.52</ele>
        <time>2019-08-18T11:28:23Z</time>
      </trkpt>
      <trkpt lat="42.92956" lon="0.77039">
        <ele>1331.56</ele>
        <time>2019-08-18T11:28:34Z</time>
      </trkpt>
      <trkpt lat="42.92954" lon="0.77056">
        <ele>1329.64</ele>
        <time>2019-08-18T11:28:47Z</time>
      </trkpt>
      <trkpt lat="42.92951" lon="0.77072">
        <ele>1328.2</ele>
        <time>2019-08-18T11:29:00Z</time>
      </trkpt>
      <trkpt lat="42.92944" lon="0.77083">
        <ele>1327.24</ele>
        <time>2019-08-18T11:29:12Z</time>
      </trkpt>
      <trkpt lat="42.92946" lon="0.77099">
        <ele>1325.31</ele>
        <time>2019-08-18T11:29:24Z</time>
      </trkpt>
      <trkpt lat="42.92943" lon="0.77111">
        <ele>1324.83</ele>
        <time>2019-08-18T11:29:34Z</time>
      </trkpt>
      <trkpt lat="42.92941" lon="0.77125">
        <ele>1323.87</ele>
        <time>2019-08-18T11:29:44Z</time>
      </trkpt>
      <trkpt lat="42.9294" lon="0.77138">
        <ele>1322.91</ele>
        <time>2019-08-18T11:29:54Z</time>
      </trkpt>
      <trkpt lat="42.92938" lon="0.77151">
        <ele>1321.47</ele>
        <time>2019-08-18T11:30:04Z</time>
      </trkpt>
      <trkpt lat="42.92936" lon="0.77164">
        <ele>1320.51</ele>
        <time>2019-08-18T11:30:16Z</time>
      </trkpt>
      <trkpt lat="42.92936" lon="0.77178">
        <ele>1319.07</ele>
        <time>2019-08-18T11:30:26Z</time>
      </trkpt>
      <trkpt lat="42.92936" lon="0.77192">
        <ele>1316.66</ele>
        <time>2019-08-18T11:30:37Z</time>
      </trkpt>
      <trkpt lat="42.92936" lon="0.77206">
        <ele>1315.7</ele>
        <time>2019-08-18T11:30:48Z</time>
      </trkpt>
      <trkpt lat="42.9294" lon="0.7722">
        <ele>1314.26</ele>
        <time>2019-08-18T11:30:59Z</time>
      </trkpt>
      <trkpt lat="42.92944" lon="0.77233">
        <ele>1313.3</ele>
        <time>2019-08-18T11:31:09Z</time>
      </trkpt>
      <trkpt lat="42.92948" lon="0.77246">
        <ele>1311.86</ele>
        <time>2019-08-18T11:31:20Z</time>
      </trkpt>
      <trkpt lat="42.92949" lon="0.77256">
        <ele>1309.45</ele>
        <time>2019-08-18T11:31:49Z</time>
      </trkpt>
      <trkpt lat="42.92951" lon="0.77272">
        <ele>1308.01</ele>
        <time>2019-08-18T11:32:01Z</time>
      </trkpt>
      <trkpt lat="42.92954" lon="0.77286">
        <ele>1306.57</ele>
        <time>2019-08-18T11:32:15Z</time>
      </trkpt>
      <trkpt lat="42.92956" lon="0.773">
        <ele>1305.61</ele>
        <time>2019-08-18T11:32:27Z</time>
      </trkpt>
      <trkpt lat="42.92961" lon="0.77313">
        <ele>1304.65</ele>
        <time>2019-08-18T11:32:38Z</time>
      </trkpt>
      <trkpt lat="42.92963" lon="0.77328">
        <ele>1303.2</ele>
        <time>2019-08-18T11:32:49Z</time>
      </trkpt>
      <trkpt lat="42.9296" lon="0.77342">
        <ele>1302.24</ele>
        <time>2019-08-18T11:32:59Z</time>
      </trkpt>
      <trkpt lat="42.92952" lon="0.77349">
        <ele>1300.8</ele>
        <time>2019-08-18T11:33:08Z</time>
      </trkpt>
      <trkpt lat="42.92944" lon="0.77356">
        <ele>1299.36</ele>
        <time>2019-08-18T11:33:17Z</time>
      </trkpt>
      <trkpt lat="42.92941" lon="0.77369">
        <ele>1297.44</ele>
        <time>2019-08-18T11:33:26Z</time>
      </trkpt>
      <trkpt lat="42.9294" lon="0.77383">
        <ele>1296.48</ele>
        <time>2019-08-18T11:33:36Z</time>
      </trkpt>
      <trkpt lat="42.92935" lon="0.77385">
        <ele>1295.99</ele>
        <time>2019-08-18T11:34:46Z</time>
      </trkpt>
      <trkpt lat="42.92927" lon="0.77383">
        <ele>1298.88</ele>
        <time>2019-08-18T11:34:59Z</time>
      </trkpt>
      <trkpt lat="42.92919" lon="0.77384">
        <ele>1301.28</ele>
        <time>2019-08-18T11:35:12Z</time>
      </trkpt>
      <trkpt lat="42.92909" lon="0.77391">
        <ele>1303.2</ele>
        <time>2019-08-18T11:35:25Z</time>
      </trkpt>
      <trkpt lat="42.92899" lon="0.77401">
        <ele>1305.61</ele>
        <time>2019-08-18T11:35:42Z</time>
      </trkpt>
      <trkpt lat="42.92889" lon="0.77408">
        <ele>1306.57</ele>
        <time>2019-08-18T11:35:56Z</time>
      </trkpt>
      <trkpt lat="42.92878" lon="0.77417">
        <ele>1301.28</ele>
        <time>2019-08-18T11:36:16Z</time>
      </trkpt>
      <trkpt lat="42.92869" lon="0.77414">
        <ele>1298.4</ele>
        <time>2019-08-18T11:36:32Z</time>
      </trkpt>
      <trkpt lat="42.92853" lon="0.77408">
        <ele>1295.99</ele>
        <time>2019-08-18T11:36:46Z</time>
      </trkpt>
      <trkpt lat="42.92842" lon="0.77415">
        <ele>1291.67</ele>
        <time>2019-08-18T11:37:02Z</time>
      </trkpt>
      <trkpt lat="42.92831" lon="0.77417">
        <ele>1288.78</ele>
        <time>2019-08-18T11:37:13Z</time>
      </trkpt>
      <trkpt lat="42.92823" lon="0.77408">
        <ele>1289.27</ele>
        <time>2019-08-18T11:37:22Z</time>
      </trkpt>
      <trkpt lat="42.92813" lon="0.77401">
        <ele>1289.75</ele>
        <time>2019-08-18T11:37:33Z</time>
      </trkpt>
      <trkpt lat="42.92803" lon="0.77392">
        <ele>1290.71</ele>
        <time>2019-08-18T11:37:42Z</time>
      </trkpt>
      <trkpt lat="42.92795" lon="0.77384">
        <ele>1291.19</ele>
        <time>2019-08-18T11:37:51Z</time>
      </trkpt>
      <trkpt lat="42.92787" lon="0.77374">
        <ele>1291.19</ele>
        <time>2019-08-18T11:38:00Z</time>
      </trkpt>
      <trkpt lat="42.92778" lon="0.77368">
        <ele>1292.63</ele>
        <time>2019-08-18T11:38:10Z</time>
      </trkpt>
      <trkpt lat="42.92767" lon="0.77363">
        <ele>1293.11</ele>
        <time>2019-08-18T11:38:18Z</time>
      </trkpt>
      <trkpt lat="42.92756" lon="0.77356">
        <ele>1293.59</ele>
        <time>2019-08-18T11:38:27Z</time>
      </trkpt>
      <trkpt lat="42.92748" lon="0.77349">
        <ele>1294.07</ele>
        <time>2019-08-18T11:38:35Z</time>
      </trkpt>
      <trkpt lat="42.92739" lon="0.77343">
        <ele>1295.03</ele>
        <time>2019-08-18T11:38:43Z</time>
      </trkpt>
      <trkpt lat="42.92729" lon="0.77337">
        <ele>1295.03</ele>
        <time>2019-08-18T11:38:51Z</time>
      </trkpt>
      <trkpt lat="42.92718" lon="0.77333">
        <ele>1295.99</ele>
        <time>2019-08-18T11:38:59Z</time>
      </trkpt>
      <trkpt lat="42.92706" lon="0.7733">
        <ele>1296.48</ele>
        <time>2019-08-18T11:39:08Z</time>
      </trkpt>
      <trkpt lat="42.92697" lon="0.77324">
        <ele>1295.99</ele>
        <time>2019-08-18T11:39:16Z</time>
      </trkpt>
      <trkpt lat="42.92687" lon="0.77315">
        <ele>1296.48</ele>
        <time>2019-08-18T11:39:24Z</time>
      </trkpt>
      <trkpt lat="42.92678" lon="0.77304">
        <ele>1297.44</ele>
        <time>2019-08-18T11:39:32Z</time>
      </trkpt>
      <trkpt lat="42.92669" lon="0.77296">
        <ele>1297.44</ele>
        <time>2019-08-18T11:39:40Z</time>
      </trkpt>
      <trkpt lat="42.9266" lon="0.7729">
        <ele>1297.92</ele>
        <time>2019-08-18T11:39:48Z</time>
      </trkpt>
      <trkpt lat="42.9265" lon="0.77285">
        <ele>1297.92</ele>
        <time>2019-08-18T11:39:57Z</time>
      </trkpt>
      <trkpt lat="42.9264" lon="0.7728">
        <ele>1298.88</ele>
        <time>2019-08-18T11:40:05Z</time>
      </trkpt>
      <trkpt lat="42.92628" lon="0.77274">
        <ele>1299.36</ele>
        <time>2019-08-18T11:40:14Z</time>
      </trkpt>
      <trkpt lat="42.92618" lon="0.77266">
        <ele>1300.32</ele>
        <time>2019-08-18T11:40:22Z</time>
      </trkpt>
      <trkpt lat="42.9261" lon="0.77255">
        <ele>1301.28</ele>
        <time>2019-08-18T11:40:30Z</time>
      </trkpt>
      <trkpt lat="42.92602" lon="0.77243">
        <ele>1301.76</ele>
        <time>2019-08-18T11:40:39Z</time>
      </trkpt>
      <trkpt lat="42.92593" lon="0.7723">
        <ele>1303.2</ele>
        <time>2019-08-18T11:40:48Z</time>
      </trkpt>
      <trkpt lat="42.92583" lon="0.77221">
        <ele>1303.2</ele>
        <time>2019-08-18T11:40:56Z</time>
      </trkpt>
      <trkpt lat="42.92576" lon="0.7721">
        <ele>1303.69</ele>
        <time>2019-08-18T11:41:05Z</time>
      </trkpt>
      <trkpt lat="42.92568" lon="0.77198">
        <ele>1305.13</ele>
        <time>2019-08-18T11:41:14Z</time>
      </trkpt>
      <trkpt lat="42.9256" lon="0.77185">
        <ele>1306.09</ele>
        <time>2019-08-18T11:41:23Z</time>
      </trkpt>
      <trkpt lat="42.92554" lon="0.77171">
        <ele>1306.57</ele>
        <time>2019-08-18T11:41:31Z</time>
      </trkpt>
      <trkpt lat="42.92548" lon="0.77156">
        <ele>1308.01</ele>
        <time>2019-08-18T11:41:40Z</time>
      </trkpt>
      <trkpt lat="42.9254" lon="0.77144">
        <ele>1308.49</ele>
        <time>2019-08-18T11:41:48Z</time>
      </trkpt>
      <trkpt lat="42.92532" lon="0.77132">
        <ele>1308.01</ele>
        <time>2019-08-18T11:41:56Z</time>
      </trkpt>
      <trkpt lat="42.92524" lon="0.77122">
        <ele>1308.49</ele>
        <time>2019-08-18T11:42:04Z</time>
      </trkpt>
      <trkpt lat="42.92514" lon="0.77116">
        <ele>1309.45</ele>
        <time>2019-08-18T11:42:12Z</time>
      </trkpt>
      <trkpt lat="42.92504" lon="0.77111">
        <ele>1310.9</ele>
        <time>2019-08-18T11:42:20Z</time>
      </trkpt>
      <trkpt lat="42.92493" lon="0.77107">
        <ele>1310.41</ele>
        <time>2019-08-18T11:42:27Z</time>
      </trkpt>
      <trkpt lat="42.92483" lon="0.771">
        <ele>1311.38</ele>
        <time>2019-08-18T11:42:35Z</time>
      </trkpt>
      <trkpt lat="42.92473" lon="0.77093">
        <ele>1312.34</ele>
        <time>2019-08-18T11:42:43Z</time>
      </trkpt>
      <trkpt lat="42.92464" lon="0.77086">
        <ele>1312.82</ele>
        <time>2019-08-18T11:42:51Z</time>
      </trkpt>
      <trkpt lat="42.92454" lon="0.77079">
        <ele>1313.3</ele>
        <time>2019-08-18T11:43:01Z</time>
      </trkpt>
      <trkpt lat="42.92444" lon="0.77074">
        <ele>1314.26</ele>
        <time>2019-08-18T11:43:10Z</time>
      </trkpt>
      <trkpt lat="42.92432" lon="0.77068">
        <ele>1314.74</ele>
        <time>2019-08-18T11:43:18Z</time>
      </trkpt>
      <trkpt lat="42.92421" lon="0.77061">
        <ele>1315.7</ele>
        <time>2019-08-18T11:43:28Z</time>
      </trkpt>
      <trkpt lat="42.92407" lon="0.77054">
        <ele>1316.18</ele>
        <time>2019-08-18T11:43:36Z</time>
      </trkpt>
      <trkpt lat="42.92395" lon="0.77052">
        <ele>1316.66</ele>
        <time>2019-08-18T11:43:44Z</time>
      </trkpt>
      <trkpt lat="42.92383" lon="0.7705">
        <ele>1317.62</ele>
        <time>2019-08-18T11:43:52Z</time>
      </trkpt>
      <trkpt lat="42.92372" lon="0.77048">
        <ele>1318.1</ele>
        <time>2019-08-18T11:44:00Z</time>
      </trkpt>
      <trkpt lat="42.92362" lon="0.77046">
        <ele>1318.59</ele>
        <time>2019-08-18T11:44:07Z</time>
      </trkpt>
      <trkpt lat="42.92352" lon="0.77049">
        <ele>1318.59</ele>
        <time>2019-08-18T11:44:14Z</time>
      </trkpt>
      <trkpt lat="42.9234" lon="0.77051">
        <ele>1319.07</ele>
        <time>2019-08-18T11:44:22Z</time>
      </trkpt>
      <trkpt lat="42.92331" lon="0.77051">
        <ele>1319.55</ele>
        <time>2019-08-18T11:44:30Z</time>
      </trkpt>
      <trkpt lat="42.92321" lon="0.77045">
        <ele>1319.55</ele>
        <time>2019-08-18T11:44:39Z</time>
      </trkpt>
      <trkpt lat="42.92311" lon="0.77036">
        <ele>1319.55</ele>
        <time>2019-08-18T11:44:47Z</time>
      </trkpt>
      <trkpt lat="42.923" lon="0.77029">
        <ele>1320.03</ele>
        <time>2019-08-18T11:44:55Z</time>
      </trkpt>
      <trkpt lat="42.92293" lon="0.77019">
        <ele>1320.03</ele>
        <time>2019-08-18T11:45:02Z</time>
      </trkpt>
      <trkpt lat="42.92284" lon="0.77008">
        <ele>1320.99</ele>
        <time>2019-08-18T11:45:10Z</time>
      </trkpt>
      <trkpt lat="42.92277" lon="0.76997">
        <ele>1320.99</ele>
        <time>2019-08-18T11:45:17Z</time>
      </trkpt>
      <trkpt lat="42.92272" lon="0.76986">
        <ele>1321.47</ele>
        <time>2019-08-18T11:45:24Z</time>
      </trkpt>
      <trkpt lat="42.92267" lon="0.76972">
        <ele>1322.43</ele>
        <time>2019-08-18T11:45:32Z</time>
      </trkpt>
      <trkpt lat="42.92264" lon="0.76958">
        <ele>1322.43</ele>
        <time>2019-08-18T11:45:40Z</time>
      </trkpt>
      <trkpt lat="42.92257" lon="0.76942">
        <ele>1322.91</ele>
        <time>2019-08-18T11:45:50Z</time>
      </trkpt>
      <trkpt lat="42.92254" lon="0.76926">
        <ele>1323.39</ele>
        <time>2019-08-18T11:45:58Z</time>
      </trkpt>
      <trkpt lat="42.9225" lon="0.76911">
        <ele>1323.87</ele>
        <time>2019-08-18T11:46:06Z</time>
      </trkpt>
      <trkpt lat="42.92246" lon="0.76896">
        <ele>1324.83</ele>
        <time>2019-08-18T11:46:15Z</time>
      </trkpt>
      <trkpt lat="42.92243" lon="0.76881">
        <ele>1324.83</ele>
        <time>2019-08-18T11:46:23Z</time>
      </trkpt>
      <trkpt lat="42.9224" lon="0.76865">
        <ele>1325.31</ele>
        <time>2019-08-18T11:46:31Z</time>
      </trkpt>
      <trkpt lat="42.92236" lon="0.7685">
        <ele>1325.8</ele>
        <time>2019-08-18T11:46:40Z</time>
      </trkpt>
      <trkpt lat="42.92231" lon="0.76834">
        <ele>1326.76</ele>
        <time>2019-08-18T11:46:49Z</time>
      </trkpt>
      <trkpt lat="42.92226" lon="0.76817">
        <ele>1326.76</ele>
        <time>2019-08-18T11:46:58Z</time>
      </trkpt>
      <trkpt lat="42.92224" lon="0.76803">
        <ele>1327.24</ele>
        <time>2019-08-18T11:47:06Z</time>
      </trkpt>
      <trkpt lat="42.92221" lon="0.76787">
        <ele>1327.72</ele>
        <time>2019-08-18T11:47:14Z</time>
      </trkpt>
      <trkpt lat="42.92218" lon="0.76771">
        <ele>1328.2</ele>
        <time>2019-08-18T11:47:22Z</time>
      </trkpt>
      <trkpt lat="42.92214" lon="0.76755">
        <ele>1328.68</ele>
        <time>2019-08-18T11:47:30Z</time>
      </trkpt>
      <trkpt lat="42.92213" lon="0.7674">
        <ele>1329.64</ele>
        <time>2019-08-18T11:47:39Z</time>
      </trkpt>
      <trkpt lat="42.92213" lon="0.76725">
        <ele>1330.6</ele>
        <time>2019-08-18T11:47:48Z</time>
      </trkpt>
      <trkpt lat="42.92214" lon="0.76709">
        <ele>1331.08</ele>
        <time>2019-08-18T11:47:57Z</time>
      </trkpt>
      <trkpt lat="42.92213" lon="0.76695">
        <ele>1331.56</ele>
        <time>2019-08-18T11:48:05Z</time>
      </trkpt>
      <trkpt lat="42.92209" lon="0.76678">
        <ele>1332.04</ele>
        <time>2019-08-18T11:48:13Z</time>
      </trkpt>
      <trkpt lat="42.92206" lon="0.76663">
        <ele>1332.52</ele>
        <time>2019-08-18T11:48:20Z</time>
      </trkpt>
      <trkpt lat="42.92206" lon="0.76649">
        <ele>1333.01</ele>
        <time>2019-08-18T11:48:28Z</time>
      </trkpt>
      <trkpt lat="42.92204" lon="0.76634">
        <ele>1333.49</ele>
        <time>2019-08-18T11:48:35Z</time>
      </trkpt>
      <trkpt lat="42.92203" lon="0.76619">
        <ele>1334.45</ele>
        <time>2019-08-18T11:48:44Z</time>
      </trkpt>
      <trkpt lat="42.92199" lon="0.76601">
        <ele>1334.93</ele>
        <time>2019-08-18T11:48:52Z</time>
      </trkpt>
      <trkpt lat="42.92198" lon="0.76586">
        <ele>1335.41</ele>
        <time>2019-08-18T11:49:00Z</time>
      </trkpt>
      <trkpt lat="42.92195" lon="0.76571">
        <ele>1336.37</ele>
        <time>2019-08-18T11:49:07Z</time>
      </trkpt>
      <trkpt lat="42.92193" lon="0.76557">
        <ele>1336.85</ele>
        <time>2019-08-18T11:49:15Z</time>
      </trkpt>
      <trkpt lat="42.9219" lon="0.76543">
        <ele>1336.85</ele>
        <time>2019-08-18T11:49:23Z</time>
      </trkpt>
      <trkpt lat="42.92187" lon="0.76529">
        <ele>1337.33</ele>
        <time>2019-08-18T11:49:31Z</time>
      </trkpt>
      <trkpt lat="42.92186" lon="0.76515">
        <ele>1337.81</ele>
        <time>2019-08-18T11:49:39Z</time>
      </trkpt>
      <trkpt lat="42.92179" lon="0.76502">
        <ele>1337.81</ele>
        <time>2019-08-18T11:49:47Z</time>
      </trkpt>
      <trkpt lat="42.92171" lon="0.76494">
        <ele>1337.81</ele>
        <time>2019-08-18T11:49:54Z</time>
      </trkpt>
      <trkpt lat="42.92163" lon="0.76485">
        <ele>1338.29</ele>
        <time>2019-08-18T11:50:02Z</time>
      </trkpt>
      <trkpt lat="42.92156" lon="0.76474">
        <ele>1338.77</ele>
        <time>2019-08-18T11:50:09Z</time>
      </trkpt>
      <trkpt lat="42.92149" lon="0.76462">
        <ele>1339.25</ele>
        <time>2019-08-18T11:50:18Z</time>
      </trkpt>
      <trkpt lat="42.92143" lon="0.76449">
        <ele>1339.73</ele>
        <time>2019-08-18T11:50:26Z</time>
      </trkpt>
      <trkpt lat="42.92137" lon="0.76433">
        <ele>1340.22</ele>
        <time>2019-08-18T11:50:35Z</time>
      </trkpt>
      <trkpt lat="42.92133" lon="0.76414">
        <ele>1340.22</ele>
        <time>2019-08-18T11:50:44Z</time>
      </trkpt>
      <trkpt lat="42.92128" lon="0.76396">
        <ele>1341.18</ele>
        <time>2019-08-18T11:50:55Z</time>
      </trkpt>
      <trkpt lat="42.92124" lon="0.76383">
        <ele>1341.18</ele>
        <time>2019-08-18T11:51:01Z</time>
      </trkpt>
      <trkpt lat="42.92119" lon="0.76369">
        <ele>1342.14</ele>
        <time>2019-08-18T11:51:14Z</time>
      </trkpt>
      <trkpt lat="42.92112" lon="0.76349">
        <ele>1343.1</ele>
        <time>2019-08-18T11:51:26Z</time>
      </trkpt>
      <trkpt lat="42.92109" lon="0.76337">
        <ele>1343.1</ele>
        <time>2019-08-18T11:51:34Z</time>
      </trkpt>
      <trkpt lat="42.92101" lon="0.76318">
        <ele>1343.1</ele>
        <time>2019-08-18T11:51:44Z</time>
      </trkpt>
      <trkpt lat="42.92098" lon="0.76303">
        <ele>1344.06</ele>
        <time>2019-08-18T11:51:53Z</time>
      </trkpt>
      <trkpt lat="42.92091" lon="0.76289">
        <ele>1345.02</ele>
        <time>2019-08-18T11:52:03Z</time>
      </trkpt>
      <trkpt lat="42.92082" lon="0.76275">
        <ele>1345.02</ele>
        <time>2019-08-18T11:52:11Z</time>
      </trkpt>
      <trkpt lat="42.92072" lon="0.76265">
        <ele>1345.02</ele>
        <time>2019-08-18T11:52:20Z</time>
      </trkpt>
      <trkpt lat="42.92063" lon="0.76258">
        <ele>1345.98</ele>
        <time>2019-08-18T11:52:30Z</time>
      </trkpt>
      <trkpt lat="42.92051" lon="0.7625">
        <ele>1346.94</ele>
        <time>2019-08-18T11:52:41Z</time>
      </trkpt>
      <trkpt lat="42.9204" lon="0.76242">
        <ele>1346.94</ele>
        <time>2019-08-18T11:52:54Z</time>
      </trkpt>
      <trkpt lat="42.9203" lon="0.76232">
        <ele>1346.94</ele>
        <time>2019-08-18T11:53:08Z</time>
      </trkpt>
      <trkpt lat="42.9202" lon="0.76219">
        <ele>1348.39</ele>
        <time>2019-08-18T11:53:24Z</time>
      </trkpt>
      <trkpt lat="42.92007" lon="0.76199">
        <ele>1347.91</ele>
        <time>2019-08-18T11:53:37Z</time>
      </trkpt>
      <trkpt lat="42.91993" lon="0.76185">
        <ele>1348.87</ele>
        <time>2019-08-18T11:53:51Z</time>
      </trkpt>
      <trkpt lat="42.9198" lon="0.76177">
        <ele>1350.31</ele>
        <time>2019-08-18T11:54:05Z</time>
      </trkpt>
      <trkpt lat="42.91967" lon="0.76175">
        <ele>1351.75</ele>
        <time>2019-08-18T11:54:18Z</time>
      </trkpt>
      <trkpt lat="42.91956" lon="0.7618">
        <ele>1351.75</ele>
        <time>2019-08-18T11:54:29Z</time>
      </trkpt>
      <trkpt lat="42.91945" lon="0.76183">
        <ele>1351.27</ele>
        <time>2019-08-18T11:54:39Z</time>
      </trkpt>
      <trkpt lat="42.91933" lon="0.76185">
        <ele>1351.27</ele>
        <time>2019-08-18T11:54:50Z</time>
      </trkpt>
      <trkpt lat="42.91923" lon="0.76185">
        <ele>1351.27</ele>
        <time>2019-08-18T11:55:00Z</time>
      </trkpt>
      <trkpt lat="42.91909" lon="0.76193">
        <ele>1352.23</ele>
        <time>2019-08-18T11:55:13Z</time>
      </trkpt>
      <trkpt lat="42.91906" lon="0.76207">
        <ele>1352.71</ele>
        <time>2019-08-18T11:55:29Z</time>
      </trkpt>
    </trkseg>
  </trk>
</gpx>